Wetterdaten: Samstag, 01.11.2014
Datum Zeit Temp. Aussen +5cm Feuchte Auss Luftdruck Regen Sonnenschein Regendauer Solar Windben
01.11.2014 00:00 12,3 C 10,6 C 96 % 1021,0 hPa 0,0 l/m 0 min 0 min 0 W/m 10,5 km/h (2 Bft)
01.11.2014 00:02 12,3 C 10,6 C 96 % 1021,4 hPa 0,0 l/m 0 min 0 min 0 W/m 10,5 km/h (2 Bft)
01.11.2014 00:05 12,3 C 10,6 C 96 % 1021,0 hPa 0,0 l/m 0 min 0 min 0 W/m 14,6 km/h (3 Bft)
01.11.2014 00:06 12,3 C 10,6 C 96 % 1021,0 hPa 0,0 l/m 0 min 0 min 0 W/m 14,6 km/h (3 Bft)
01.11.2014 00:08 12,3 C 10,6 C 96 % 1020,9 hPa 0,0 l/m 0 min 0 min 0 W/m 12,6 km/h (3 Bft)
01.11.2014 00:10 12,2 C 10,6 C 96 % 1020,9 hPa 0,0 l/m 0 min 0 min 0 W/m 8,4 km/h (2 Bft)
01.11.2014 00:12 12,2 C 10,6 C 96 % 1020,9 hPa 0,0 l/m 0 min 0 min 0 W/m 10,5 km/h (2 Bft)
01.11.2014 00:14 12,2 C 10,6 C 96 % 1020,9 hPa 0,0 l/m 0 min 0 min 0 W/m 12,6 km/h (3 Bft)
01.11.2014 00:16 12,2 C 10,6 C 96 % 1020,9 hPa 0,0 l/m 0 min 0 min 0 W/m 10,5 km/h (2 Bft)
01.11.2014 00:18 12,2 C 10,6 C 96 % 1020,9 hPa 0,0 l/m 0 min 0 min 0 W/m 14,6 km/h (3 Bft)
01.11.2014 00:20 12,2 C 10,6 C 96 % 1020,9 hPa 0,0 l/m 0 min 0 min 0 W/m 16,7 km/h (3 Bft)
01.11.2014 00:22 12,2 C 10,6 C 96 % 1020,9 hPa 0,0 l/m 0 min 0 min 0 W/m 14,6 km/h (3 Bft)
01.11.2014 00:24 12,1 C 10,6 C 96 % 1020,9 hPa 0,0 l/m 0 min 0 min 0 W/m 12,6 km/h (3 Bft)
01.11.2014 00:26 12,1 C 10,6 C 96 % 1020,8 hPa 0,0 l/m 0 min 0 min 0 W/m 10,5 km/h (2 Bft)
01.11.2014 00:28 12,1 C 10,6 C 96 % 1020,9 hPa 0,0 l/m 0 min 0 min 0 W/m 12,6 km/h (3 Bft)
01.11.2014 00:30 12,1 C 10,6 C 96 % 1020,9 hPa 0,0 l/m 0 min 0 min 0 W/m 10,5 km/h (2 Bft)
01.11.2014 00:32 12,1 C 10,6 C 96 % 1020,9 hPa 0,0 l/m 0 min 0 min 0 W/m 14,6 km/h (3 Bft)
01.11.2014 00:34 12,1 C 10,6 C 96 % 1020,9 hPa 0,0 l/m 0 min 0 min 0 W/m 12,6 km/h (3 Bft)
01.11.2014 00:36 12,1 C 10,6 C 96 % 1020,9 hPa 0,0 l/m 0 min 0 min 0 W/m 8,4 km/h (2 Bft)
01.11.2014 00:38 12,0 C 10,6 C 96 % 1020,9 hPa 0,0 l/m 0 min 0 min 0 W/m 12,6 km/h (3 Bft)
01.11.2014 00:40 12,0 C 10,6 C 96 % 1020,9 hPa 0,0 l/m 0 min 0 min 0 W/m 10,5 km/h (2 Bft)
01.11.2014 00:42 12,0 C 10,0 C 96 % 1020,9 hPa 0,0 l/m 0 min 0 min 0 W/m 8,4 km/h (2 Bft)
01.11.2014 00:44 12,0 C 10,6 C 96 % 1020,9 hPa 0,0 l/m 0 min 0 min 0 W/m 10,5 km/h (2 Bft)
01.11.2014 00:46 12,0 C 10,6 C 96 % 1020,9 hPa 0,0 l/m 0 min 0 min 0 W/m 10,5 km/h (2 Bft)
01.11.2014 00:48 11,9 C 10,6 C 96 % 1020,8 hPa 0,0 l/m 0 min 0 min 0 W/m 10,5 km/h (2 Bft)
01.11.2014 00:50 11,9 C 10,0 C 96 % 1020,8 hPa 0,0 l/m 0 min 0 min 0 W/m 6,3 km/h (2 Bft)
01.11.2014 00:52 11,9 C 10,0 C 96 % 1020,8 hPa 0,0 l/m 0 min 0 min 0 W/m 12,6 km/h (3 Bft)
01.11.2014 00:54 11,9 C 10,0 C 96 % 1020,8 hPa 0,0 l/m 0 min 0 min 0 W/m 10,5 km/h (2 Bft)
01.11.2014 00:56 11,9 C 10,0 C 96 % 1020,7 hPa 0,0 l/m 0 min 0 min 0 W/m 12,6 km/h (3 Bft)
01.11.2014 00:58 11,9 C 10,0 C 96 % 1020,7 hPa 0,0 l/m 0 min 0 min 0 W/m 6,3 km/h (2 Bft)
01.11.2014 01:00 11,9 C 10,0 C 96 % 1020,7 hPa 0,0 l/m 0 min 0 min 0 W/m 12,6 km/h (3 Bft)
01.11.2014 01:02 11,9 C 10,0 C 96 % 1020,7 hPa 0,0 l/m 0 min 0 min 0 W/m 12,6 km/h (3 Bft)
01.11.2014 01:04 11,9 C 10,0 C 96 % 1020,7 hPa 0,0 l/m 0 min 0 min 0 W/m 10,5 km/h (2 Bft)
01.11.2014 01:06 11,8 C 10,0 C 96 % 1020,7 hPa 0,0 l/m 0 min 0 min 0 W/m 12,6 km/h (3 Bft)
01.11.2014 01:08 11,8 C 10,0 C 96 % 1020,7 hPa 0,0 l/m 0 min 0 min 0 W/m 12,6 km/h (3 Bft)
01.11.2014 01:10 11,8 C 10,0 C 96 % 1020,6 hPa 0,0 l/m 0 min 0 min 0 W/m 12,6 km/h (3 Bft)
01.11.2014 01:12 11,8 C 10,0 C 96 % 1020,7 hPa 0,0 l/m 0 min 0 min 0 W/m 14,6 km/h (3 Bft)
01.11.2014 01:14 11,8 C 10,0 C 96 % 1020,7 hPa 0,0 l/m 0 min 0 min 0 W/m 12,6 km/h (3 Bft)
01.11.2014 01:16 11,8 C 10,0 C 97 % 1020,6 hPa 0,0 l/m 0 min 0 min 0 W/m 10,5 km/h (2 Bft)
01.11.2014 01:18 11,8 C 10,0 C 97 % 1020,7 hPa 0,0 l/m 0 min 0 min 0 W/m 10,5 km/h (2 Bft)
01.11.2014 01:20 11,8 C 10,0 C 97 % 1020,7 hPa 0,0 l/m 0 min 0 min 0 W/m 8,4 km/h (2 Bft)
01.11.2014 01:22 11,8 C 10,0 C 97 % 1020,6 hPa 0,0 l/m 0 min 0 min 0 W/m 12,6 km/h (3 Bft)
01.11.2014 01:24 11,8 C 10,0 C 97 % 1020,7 hPa 0,0 l/m 0 min 0 min 0 W/m 10,5 km/h (2 Bft)
01.11.2014 01:26 11,8 C 10,0 C 97 % 1020,6 hPa 0,0 l/m 0 min 0 min 0 W/m 10,5 km/h (2 Bft)
01.11.2014 01:28 11,8 C 10,0 C 97 % 1020,6 hPa 0,0 l/m 0 min 0 min 0 W/m 10,5 km/h (2 Bft)
01.11.2014 01:30 11,7 C 10,0 C 97 % 1020,6 hPa 0,0 l/m 0 min 0 min 0 W/m 10,5 km/h (2 Bft)
01.11.2014 01:32 11,7 C 10,0 C 97 % 1020,6 hPa 0,0 l/m 0 min 0 min 0 W/m 10,5 km/h (2 Bft)
01.11.2014 01:34 11,7 C 10,0 C 97 % 1020,6 hPa 0,0 l/m 0 min 0 min 0 W/m 10,5 km/h (2 Bft)
01.11.2014 01:36 11,7 C 10,0 C 97 % 1020,6 hPa 0,0 l/m 0 min 0 min 0 W/m 10,5 km/h (2 Bft)
01.11.2014 01:38 11,7 C 10,0 C 96 % 1020,6 hPa 0,0 l/m 0 min 0 min 0 W/m 12,6 km/h (3 Bft)
01.11.2014 01:40 11,7 C 10,0 C 96 % 1020,6 hPa 0,0 l/m 0 min 0 min 0 W/m 8,4 km/h (2 Bft)
01.11.2014 01:42 11,7 C 10,0 C 96 % 1020,6 hPa 0,0 l/m 0 min 0 min 0 W/m 14,6 km/h (3 Bft)
01.11.2014 01:44 11,7 C 10,0 C 97 % 1020,6 hPa 0,0 l/m 0 min 0 min 0 W/m 8,4 km/h (2 Bft)
01.11.2014 01:46 11,7 C 10,0 C 97 % 1020,5 hPa 0,0 l/m 0 min 0 min 0 W/m 12,6 km/h (3 Bft)
01.11.2014 01:48 11,7 C 10,0 C 97 % 1020,6 hPa 0,0 l/m 0 min 0 min 0 W/m 8,4 km/h (2 Bft)
01.11.2014 01:50 11,7 C 10,0 C 97 % 1020,6 hPa 0,0 l/m 0 min 0 min 0 W/m 10,5 km/h (2 Bft)
01.11.2014 01:52 11,7 C 10,0 C 97 % 1020,5 hPa 0,0 l/m 0 min 0 min 0 W/m 12,6 km/h (3 Bft)
01.11.2014 01:54 11,7 C 10,0 C 97 % 1020,5 hPa 0,0 l/m 0 min 0 min 0 W/m 12,6 km/h (3 Bft)
01.11.2014 01:56 11,6 C 10,0 C 97 % 1020,5 hPa 0,0 l/m 0 min 0 min 0 W/m 6,3 km/h (2 Bft)
01.11.2014 01:58 11,6 C 10,0 C 97 % 1020,5 hPa 0,0 l/m 0 min 0 min 0 W/m 10,5 km/h (2 Bft)
01.11.2014 02:00 11,6 C 10,0 C 97 % 1020,6 hPa 0,0 l/m 0 min 0 min 0 W/m 10,5 km/h (2 Bft)
01.11.2014 02:02 11,6 C 10,0 C 97 % 1020,5 hPa 0,0 l/m 0 min 0 min 0 W/m 14,6 km/h (3 Bft)
01.11.2014 02:04 11,6 C 10,0 C 97 % 1020,5 hPa 0,0 l/m 0 min 0 min 0 W/m 14,6 km/h (3 Bft)
01.11.2014 02:06 11,6 C 10,0 C 97 % 1020,6 hPa 0,0 l/m 0 min 0 min 0 W/m 10,5 km/h (2 Bft)
01.11.2014 02:08 11,6 C 10,0 C 97 % 1020,5 hPa 0,0 l/m 0 min 0 min 0 W/m 12,6 km/h (3 Bft)
01.11.2014 02:10 11,6 C 10,0 C 97 % 1020,5 hPa 0,0 l/m 0 min 0 min 0 W/m 12,6 km/h (3 Bft)
01.11.2014 02:12 11,6 C 10,0 C 97 % 1020,5 hPa 0,0 l/m 0 min 0 min 0 W/m 14,6 km/h (3 Bft)
01.11.2014 02:14 11,6 C 10,0 C 97 % 1020,4 hPa 0,0 l/m 0 min 0 min 0 W/m 12,6 km/h (3 Bft)
01.11.2014 02:16 11,6 C 10,0 C 97 % 1020,5 hPa 0,0 l/m 0 min 0 min 0 W/m 12,6 km/h (3 Bft)
01.11.2014 02:18 11,6 C 10,0 C 97 % 1020,4 hPa 0,0 l/m 0 min 0 min 0 W/m 10,5 km/h (2 Bft)
01.11.2014 02:20 11,6 C 10,0 C 97 % 1020,4 hPa 0,0 l/m 0 min 0 min 0 W/m 10,5 km/h (2 Bft)
01.11.2014 02:22 11,6 C 10,0 C 97 % 1020,4 hPa 0,0 l/m 0 min 0 min 0 W/m 10,5 km/h (2 Bft)
01.11.2014 02:24 11,6 C 10,0 C 97 % 1020,5 hPa 0,0 l/m 0 min 0 min 0 W/m 10,5 km/h (2 Bft)
01.11.2014 02:26 11,5 C 10,0 C 97 % 1020,4 hPa 0,0 l/m 0 min 0 min 0 W/m 12,6 km/h (3 Bft)
01.11.2014 02:28 11,5 C 10,0 C 97 % 1020,4 hPa 0,0 l/m 0 min 0 min 0 W/m 14,6 km/h (3 Bft)
01.11.2014 02:30 11,6 C 10,0 C 97 % 1020,4 hPa 0,0 l/m 0 min 0 min 0 W/m 14,6 km/h (3 Bft)
01.11.2014 02:32 11,5 C 10,0 C 97 % 1020,4 hPa 0,0 l/m 0 min 0 min 0 W/m 10,5 km/h (2 Bft)
01.11.2014 02:34 11,5 C 10,0 C 97 % 1020,3 hPa 0,0 l/m 0 min 0 min 0 W/m 12,6 km/h (3 Bft)
01.11.2014 02:36 11,5 C 10,0 C 97 % 1020,3 hPa 0,0 l/m 0 min 0 min 0 W/m 8,4 km/h (2 Bft)
01.11.2014 02:38 11,5 C 10,0 C 97 % 1020,3 hPa 0,0 l/m 0 min 0 min 0 W/m 10,5 km/h (2 Bft)
01.11.2014 02:40 11,5 C 10,0 C 97 % 1020,2 hPa 0,0 l/m 0 min 0 min 0 W/m 14,6 km/h (3 Bft)
01.11.2014 02:42 11,5 C 10,0 C 97 % 1020,3 hPa 0,0 l/m 0 min 0 min 0 W/m 16,7 km/h (3 Bft)
01.11.2014 02:44 11,5 C 10,0 C 97 % 1020,2 hPa 0,0 l/m 0 min 0 min 0 W/m 14,6 km/h (3 Bft)
01.11.2014 02:46 11,4 C 10,0 C 97 % 1020,3 hPa 0,0 l/m 0 min 0 min 0 W/m 12,6 km/h (3 Bft)
01.11.2014 02:48 11,5 C 10,0 C 97 % 1020,2 hPa 0,0 l/m 0 min 0 min 0 W/m 12,6 km/h (3 Bft)
01.11.2014 02:50 11,4 C 10,0 C 97 % 1020,1 hPa 0,0 l/m 0 min 0 min 0 W/m 10,5 km/h (2 Bft)
01.11.2014 02:52 11,4 C 10,0 C 97 % 1020,1 hPa 0,0 l/m 0 min 0 min 0 W/m 10,5 km/h (2 Bft)
01.11.2014 02:54 11,4 C 10,0 C 97 % 1020,1 hPa 0,0 l/m 0 min 0 min 0 W/m 10,5 km/h (2 Bft)
01.11.2014 02:56 11,4 C 10,0 C 97 % 1020,1 hPa 0,0 l/m 0 min 0 min 0 W/m 10,5 km/h (2 Bft)
01.11.2014 02:58 11,4 C 10,0 C 97 % 1020,1 hPa 0,0 l/m 0 min 0 min 0 W/m 12,6 km/h (3 Bft)
01.11.2014 03:00 11,4 C 10,0 C 97 % 1020,1 hPa 0,0 l/m 0 min 0 min 0 W/m 10,5 km/h (2 Bft)
01.11.2014 03:02 11,4 C 10,0 C 97 % 1020,0 hPa 0,0 l/m 0 min 0 min 0 W/m 8,4 km/h (2 Bft)
01.11.2014 03:04 11,4 C 10,0 C 97 % 1020,0 hPa 0,0 l/m 0 min 0 min 0 W/m 10,5 km/h (2 Bft)
01.11.2014 03:06 11,4 C 10,0 C 97 % 1020,0 hPa 0,0 l/m 0 min 0 min 0 W/m 10,5 km/h (2 Bft)
01.11.2014 03:08 11,4 C 10,0 C 97 % 1020,0 hPa 0,0 l/m 0 min 0 min 0 W/m 18,8 km/h (3 Bft)
01.11.2014 03:10 11,4 C 10,0 C 97 % 1020,0 hPa 0,0 l/m 0 min 0 min 0 W/m 10,5 km/h (2 Bft)
01.11.2014 03:12 11,4 C 10,0 C 97 % 1019,9 hPa 0,0 l/m 0 min 0 min 0 W/m 12,6 km/h (3 Bft)
01.11.2014 03:14 11,4 C 10,0 C 97 % 1020,0 hPa 0,0 l/m 0 min 0 min 0 W/m 14,6 km/h (3 Bft)
01.11.2014 03:16 11,4 C 10,0 C 97 % 1019,9 hPa 0,0 l/m 0 min 0 min 0 W/m 12,6 km/h (3 Bft)
01.11.2014 03:18 11,3 C 10,0 C 97 % 1019,9 hPa 0,0 l/m 0 min 0 min 0 W/m 14,6 km/h (3 Bft)
01.11.2014 03:20 11,3 C 10,0 C 97 % 1019,9 hPa 0,0 l/m 0 min 0 min 0 W/m 8,4 km/h (2 Bft)
01.11.2014 03:22 11,3 C 10,0 C 97 % 1019,9 hPa 0,0 l/m 0 min 0 min 0 W/m 12,6 km/h (3 Bft)
01.11.2014 03:24 11,3 C 10,0 C 97 % 1019,9 hPa 0,0 l/m 0 min 0 min 0 W/m 14,6 km/h (3 Bft)
01.11.2014 03:26 11,3 C 10,0 C 97 % 1019,8 hPa 0,0 l/m 0 min 0 min 0 W/m 10,5 km/h (2 Bft)
01.11.2014 03:28 11,3 C 10,0 C 97 % 1019,9 hPa 0,0 l/m 0 min 0 min 0 W/m 10,5 km/h (2 Bft)
01.11.2014 03:30 11,3 C 10,0 C 97 % 1019,8 hPa 0,0 l/m 0 min 0 min 0 W/m 14,6 km/h (3 Bft)
01.11.2014 03:32 11,3 C 10,0 C 97 % 1019,8 hPa 0,0 l/m 0 min 0 min 0 W/m 18,8 km/h (3 Bft)
01.11.2014 03:34 11,3 C 10,0 C 97 % 1019,8 hPa 0,0 l/m 0 min 0 min 0 W/m 10,5 km/h (2 Bft)
01.11.2014 03:36 11,2 C 10,0 C 97 % 1019,8 hPa 0,0 l/m 0 min 0 min 0 W/m 12,6 km/h (3 Bft)
01.11.2014 03:38 11,2 C 9,4 C 97 % 1019,8 hPa 0,0 l/m 0 min 0 min 0 W/m 8,4 km/h (2 Bft)
01.11.2014 03:40 11,2 C 9,4 C 97 % 1019,7 hPa 0,0 l/m 0 min 0 min 0 W/m 14,6 km/h (3 Bft)
01.11.2014 03:42 11,2 C 9,4 C 97 % 1019,7 hPa 0,0 l/m 0 min 0 min 0 W/m 12,6 km/h (3 Bft)
01.11.2014 03:44 11,2 C 10,0 C 97 % 1019,7 hPa 0,0 l/m 0 min 0 min 0 W/m 16,7 km/h (3 Bft)
01.11.2014 03:46 11,2 C 10,0 C 97 % 1019,7 hPa 0,0 l/m 0 min 0 min 0 W/m 14,6 km/h (3 Bft)
01.11.2014 03:48 11,2 C 9,4 C 97 % 1019,7 hPa 0,0 l/m 0 min 0 min 0 W/m 16,7 km/h (3 Bft)
01.11.2014 03:50 11,2 C 9,4 C 97 % 1019,7 hPa 0,0 l/m 0 min 0 min 0 W/m 14,6 km/h (3 Bft)
01.11.2014 03:52 11,2 C 9,4 C 97 % 1019,6 hPa 0,0 l/m 0 min 0 min 0 W/m 10,5 km/h (2 Bft)
01.11.2014 03:54 11,2 C 9,4 C 97 % 1019,6 hPa 0,0 l/m 0 min 0 min 0 W/m 12,6 km/h (3 Bft)
01.11.2014 03:56 11,2 C 9,4 C 97 % 1019,6 hPa 0,0 l/m 0 min 0 min 0 W/m 14,6 km/h (3 Bft)
01.11.2014 03:58 11,2 C 9,4 C 97 % 1019,7 hPa 0,0 l/m 0 min 0 min 0 W/m 14,6 km/h (3 Bft)
01.11.2014 04:00 11,1 C 9,4 C 97 % 1019,6 hPa 0,0 l/m 0 min 0 min 0 W/m 16,7 km/h (3 Bft)
01.11.2014 04:02 11,1 C 9,4 C 97 % 1019,6 hPa 0,0 l/m 0 min 0 min 0 W/m 14,6 km/h (3 Bft)
01.11.2014 04:04 11,1 C 9,4 C 97 % 1019,6 hPa 0,0 l/m 0 min 0 min 0 W/m 12,6 km/h (3 Bft)
01.11.2014 04:06 11,1 C 10,0 C 97 % 1019,6 hPa 0,0 l/m 0 min 0 min 0 W/m 16,7 km/h (3 Bft)
01.11.2014 04:08 11,1 C 10,0 C 97 % 1019,6 hPa 0,0 l/m 0 min 0 min 0 W/m 14,6 km/h (3 Bft)
01.11.2014 04:10 11,1 C 9,4 C 97 % 1019,5 hPa 0,0 l/m 0 min 0 min 0 W/m 10,5 km/h (2 Bft)
01.11.2014 04:12 11,1 C 9,4 C 97 % 1019,5 hPa 0,0 l/m 0 min 0 min 0 W/m 12,6 km/h (3 Bft)
01.11.2014 04:14 11,1 C 9,4 C 97 % 1019,5 hPa 0,0 l/m 0 min 0 min 0 W/m 10,5 km/h (2 Bft)
01.11.2014 04:16 11,1 C 9,4 C 97 % 1019,6 hPa 0,0 l/m 0 min 0 min 0 W/m 14,6 km/h (3 Bft)
01.11.2014 04:18 11,1 C 9,4 C 97 % 1019,5 hPa 0,0 l/m 0 min 0 min 0 W/m 12,6 km/h (3 Bft)
01.11.2014 04:20 11,1 C 9,4 C 97 % 1019,5 hPa 0,0 l/m 0 min 0 min 0 W/m 14,6 km/h (3 Bft)
01.11.2014 04:22 11,1 C 9,4 C 97 % 1019,5 hPa 0,0 l/m 0 min 0 min 0 W/m 12,6 km/h (3 Bft)
01.11.2014 04:24 11,1 C 9,4 C 97 % 1019,5 hPa 0,0 l/m 0 min 0 min 0 W/m 10,5 km/h (2 Bft)
01.11.2014 04:26 11,1 C 9,4 C 97 % 1019,5 hPa 0,0 l/m 0 min 0 min 0 W/m 16,7 km/h (3 Bft)
01.11.2014 04:28 11,0 C 9,4 C 97 % 1019,5 hPa 0,0 l/m 0 min 0 min 0 W/m 12,6 km/h (3 Bft)
01.11.2014 04:30 11,0 C 9,4 C 97 % 1019,5 hPa 0,0 l/m 0 min 0 min 0 W/m 10,5 km/h (2 Bft)
01.11.2014 04:32 11,0 C 9,4 C 97 % 1019,5 hPa 0,0 l/m 0 min 0 min 0 W/m 14,6 km/h (3 Bft)
01.11.2014 04:34 11,0 C 9,4 C 97 % 1019,5 hPa 0,0 l/m 0 min 0 min 0 W/m 14,6 km/h (3 Bft)
01.11.2014 04:36 11,0 C 9,4 C 97 % 1019,5 hPa 0,0 l/m 0 min 0 min 0 W/m 14,6 km/h (3 Bft)
01.11.2014 04:38 11,0 C 9,4 C 97 % 1019,4 hPa 0,0 l/m 0 min 0 min 0 W/m 14,6 km/h (3 Bft)
01.11.2014 04:40 10,9 C 9,4 C 97 % 1019,5 hPa 0,0 l/m 0 min 0 min 0 W/m 14,6 km/h (3 Bft)
01.11.2014 04:42 10,9 C 9,4 C 97 % 1019,4 hPa 0,0 l/m 0 min 0 min 0 W/m 12,6 km/h (3 Bft)
01.11.2014 04:44 10,9 C 9,4 C 97 % 1019,4 hPa 0,0 l/m 0 min 0 min 0 W/m 14,6 km/h (3 Bft)
01.11.2014 04:46 10,9 C 9,4 C 97 % 1019,4 hPa 0,0 l/m 0 min 0 min 0 W/m 14,6 km/h (3 Bft)
01.11.2014 04:48 10,9 C 9,4 C 97 % 1019,4 hPa 0,0 l/m 0 min 0 min 0 W/m 12,6 km/h (3 Bft)
01.11.2014 04:50 10,9 C 9,4 C 97 % 1019,4 hPa 0,0 l/m 0 min 0 min 0 W/m 12,6 km/h (3 Bft)
01.11.2014 04:52 10,9 C 9,4 C 97 % 1019,4 hPa 0,0 l/m 0 min 0 min 0 W/m 10,5 km/h (2 Bft)
01.11.2014 04:54 10,9 C 9,4 C 97 % 1019,3 hPa 0,0 l/m 0 min 0 min 0 W/m 12,6 km/h (3 Bft)
01.11.2014 04:56 10,9 C 9,4 C 97 % 1019,3 hPa 0,0 l/m 0 min 0 min 0 W/m 16,7 km/h (3 Bft)
01.11.2014 04:58 10,9 C 9,4 C 97 % 1019,3 hPa 0,0 l/m 0 min 0 min 0 W/m 8,4 km/h (2 Bft)
01.11.2014 05:00 10,9 C 9,4 C 97 % 1019,3 hPa 0,0 l/m 0 min 0 min 0 W/m 14,6 km/h (3 Bft)
01.11.2014 05:02 10,9 C 9,4 C 97 % 1019,4 hPa 0,0 l/m 0 min 0 min 0 W/m 14,6 km/h (3 Bft)
01.11.2014 05:04 10,9 C 9,4 C 97 % 1019,4 hPa 0,0 l/m 0 min 0 min 0 W/m 14,6 km/h (3 Bft)
01.11.2014 05:06 10,9 C 9,4 C 97 % 1019,4 hPa 0,0 l/m 0 min 0 min 0 W/m 14,6 km/h (3 Bft)
01.11.2014 05:08 10,9 C 9,4 C 97 % 1019,3 hPa 0,0 l/m 0 min 0 min 0 W/m 12,6 km/h (3 Bft)
01.11.2014 05:10 10,9 C 9,4 C 97 % 1019,3 hPa 0,0 l/m 0 min 0 min 0 W/m 10,5 km/h (2 Bft)
01.11.2014 05:12 10,8 C 9,4 C 97 % 1019,3 hPa 0,0 l/m 0 min 0 min 0 W/m 14,6 km/h (3 Bft)
01.11.2014 05:14 10,8 C 9,4 C 97 % 1019,3 hPa 0,0 l/m 0 min 0 min 0 W/m 18,8 km/h (3 Bft)
01.11.2014 05:16 10,8 C 9,4 C 97 % 1019,3 hPa 0,0 l/m 0 min 0 min 0 W/m 10,5 km/h (2 Bft)
01.11.2014 05:18 10,8 C 9,4 C 97 % 1019,3 hPa 0,0 l/m 0 min 0 min 0 W/m 10,5 km/h (2 Bft)
01.11.2014 05:20 10,8 C 9,4 C 97 % 1019,3 hPa 0,2 l/m 0 min 0 min 0 W/m 12,6 km/h (3 Bft)
01.11.2014 05:22 10,8 C 9,4 C 97 % 1019,3 hPa 0,0 l/m 0 min 0 min 0 W/m 10,5 km/h (2 Bft)
01.11.2014 05:24 10,8 C 9,4 C 97 % 1019,3 hPa 0,0 l/m 0 min 0 min 0 W/m 10,5 km/h (2 Bft)
01.11.2014 05:26 10,8 C 9,4 C 97 % 1019,3 hPa 0,0 l/m 0 min 0 min 0 W/m 10,5 km/h (2 Bft)
01.11.2014 05:28 10,8 C 9,4 C 97 % 1019,3 hPa 0,0 l/m 0 min 0 min 0 W/m 16,7 km/h (3 Bft)
01.11.2014 05:30 10,8 C 9,4 C 97 % 1019,3 hPa 0,0 l/m 0 min 0 min 0 W/m 16,7 km/h (3 Bft)
01.11.2014 05:32 10,8 C 9,4 C 97 % 1019,4 hPa 0,0 l/m 0 min 0 min 0 W/m 16,7 km/h (3 Bft)
01.11.2014 05:34 10,8 C 9,4 C 97 % 1019,3 hPa 0,0 l/m 0 min 0 min 0 W/m 12,6 km/h (3 Bft)
01.11.2014 05:36 10,8 C 9,4 C 97 % 1019,4 hPa 0,0 l/m 0 min 0 min 0 W/m 14,6 km/h (3 Bft)
01.11.2014 05:38 10,8 C 9,4 C 97 % 1019,3 hPa 0,0 l/m 0 min 0 min 0 W/m 14,6 km/h (3 Bft)
01.11.2014 05:40 10,8 C 9,4 C 97 % 1019,4 hPa 0,0 l/m 0 min 0 min 0 W/m 12,6 km/h (3 Bft)
01.11.2014 05:42 10,8 C 9,4 C 97 % 1019,4 hPa 0,0 l/m 0 min 0 min 0 W/m 14,6 km/h (3 Bft)
01.11.2014 05:44 10,8 C 9,4 C 97 % 1019,4 hPa 0,0 l/m 0 min 0 min 0 W/m 16,7 km/h (3 Bft)
01.11.2014 05:46 10,8 C 9,4 C 97 % 1019,4 hPa 0,0 l/m 0 min 0 min 0 W/m 12,6 km/h (3 Bft)
01.11.2014 05:48 10,8 C 9,4 C 97 % 1019,3 hPa 0,0 l/m 0 min 0 min 0 W/m 14,6 km/h (3 Bft)
01.11.2014 05:50 10,8 C 9,4 C 97 % 1019,4 hPa 0,0 l/m 0 min 0 min 0 W/m 10,5 km/h (2 Bft)
01.11.2014 05:52 10,8 C 9,4 C 97 % 1019,3 hPa 0,0 l/m 0 min 0 min 0 W/m 14,6 km/h (3 Bft)
01.11.2014 05:54 10,8 C 9,4 C 97 % 1019,4 hPa 0,0 l/m 0 min 0 min 0 W/m 12,6 km/h (3 Bft)
01.11.2014 05:56 10,8 C 9,4 C 97 % 1019,4 hPa 0,0 l/m 0 min 0 min 0 W/m 14,6 km/h (3 Bft)
01.11.2014 05:58 10,8 C 9,4 C 97 % 1019,4 hPa 0,0 l/m 0 min 0 min 0 W/m 16,7 km/h (3 Bft)
01.11.2014 06:00 10,7 C 9,4 C 97 % 1019,4 hPa 0,0 l/m 0 min 0 min 0 W/m 14,6 km/h (3 Bft)
01.11.2014 06:02 10,7 C 9,4 C 97 % 1019,4 hPa 0,0 l/m 0 min 0 min 0 W/m 14,6 km/h (3 Bft)
01.11.2014 06:05 10,7 C 9,4 C 97 % 1019,4 hPa 0,0 l/m 0 min 0 min 0 W/m 10,5 km/h (2 Bft)
01.11.2014 06:06 10,7 C 9,4 C 97 % 1019,4 hPa 0,0 l/m 0 min 0 min 0 W/m 12,6 km/h (3 Bft)
01.11.2014 06:08 10,7 C 9,4 C 97 % 1019,3 hPa 0,0 l/m 0 min 0 min 0 W/m 10,5 km/h (2 Bft)
01.11.2014 06:10 10,7 C 9,4 C 97 % 1019,4 hPa 0,0 l/m 0 min 0 min 0 W/m 14,6 km/h (3 Bft)
01.11.2014 06:12 10,7 C 9,4 C 97 % 1019,4 hPa 0,0 l/m 0 min 0 min 0 W/m 16,7 km/h (3 Bft)
01.11.2014 06:14 10,7 C 9,4 C 97 % 1019,4 hPa 0,0 l/m 0 min 0 min 0 W/m 14,6 km/h (3 Bft)
01.11.2014 06:16 10,7 C 9,4 C 97 % 1019,4 hPa 0,0 l/m 0 min 0 min 0 W/m 16,7 km/h (3 Bft)
01.11.2014 06:18 10,7 C 9,4 C 97 % 1019,4 hPa 0,0 l/m 0 min 0 min 0 W/m 14,6 km/h (3 Bft)
01.11.2014 06:20 10,7 C 9,4 C 97 % 1019,4 hPa 0,0 l/m 0 min 0 min 0 W/m 14,6 km/h (3 Bft)
01.11.2014 06:22 10,7 C 9,4 C 97 % 1019,5 hPa 0,0 l/m 0 min 0 min 0 W/m 14,6 km/h (3 Bft)
01.11.2014 06:24 10,7 C 9,4 C 97 % 1019,5 hPa 0,0 l/m 0 min 0 min 0 W/m 14,6 km/h (3 Bft)
01.11.2014 06:26 10,7 C 9,4 C 97 % 1019,5 hPa 0,0 l/m 0 min 0 min 0 W/m 14,6 km/h (3 Bft)
01.11.2014 06:28 10,7 C 9,4 C 97 % 1019,4 hPa 0,0 l/m 0 min 0 min 0 W/m 14,6 km/h (3 Bft)
01.11.2014 06:30 10,7 C 9,4 C 97 % 1019,4 hPa 0,0 l/m 0 min 0 min 0 W/m 16,7 km/h (3 Bft)
01.11.2014 06:32 10,7 C 9,4 C 97 % 1019,5 hPa 0,0 l/m 0 min 0 min 0 W/m 12,6 km/h (3 Bft)
01.11.2014 06:34 10,7 C 9,4 C 97 % 1019,5 hPa 0,0 l/m 0 min 0 min 0 W/m 14,6 km/h (3 Bft)
01.11.2014 06:36 10,7 C 9,4 C 97 % 1019,5 hPa 0,0 l/m 0 min 0 min 0 W/m 14,6 km/h (3 Bft)
01.11.2014 06:38 10,7 C 9,4 C 97 % 1019,5 hPa 0,0 l/m 0 min 0 min 0 W/m 10,5 km/h (2 Bft)
01.11.2014 06:40 10,7 C 9,4 C 97 % 1019,4 hPa 0,0 l/m 0 min 0 min 0 W/m 10,5 km/h (2 Bft)
01.11.2014 06:42 10,7 C 9,4 C 97 % 1019,4 hPa 0,0 l/m 0 min 0 min 0 W/m 14,6 km/h (3 Bft)
01.11.2014 06:44 10,7 C 9,4 C 97 % 1019,4 hPa 0,0 l/m 0 min 0 min 0 W/m 10,5 km/h (2 Bft)
01.11.2014 06:46 10,7 C 9,4 C 97 % 1019,4 hPa 0,0 l/m 0 min 0 min 0 W/m 14,6 km/h (3 Bft)
01.11.2014 06:48 10,7 C 9,4 C 97 % 1019,4 hPa 0,0 l/m 0 min 0 min 0 W/m 14,6 km/h (3 Bft)
01.11.2014 06:50 10,7 C 9,4 C 97 % 1019,4 hPa 0,0 l/m 0 min 0 min 0 W/m 18,8 km/h (3 Bft)
01.11.2014 06:52 10,7 C 9,4 C 97 % 1019,4 hPa 0,0 l/m 0 min 0 min 0 W/m 14,6 km/h (3 Bft)
01.11.2014 06:54 10,7 C 9,4 C 97 % 1019,4 hPa 0,0 l/m 0 min 0 min 0 W/m 14,6 km/h (3 Bft)
01.11.2014 06:56 10,7 C 9,4 C 97 % 1019,4 hPa 0,0 l/m 0 min 0 min 0 W/m 16,7 km/h (3 Bft)
01.11.2014 06:58 10,6 C 9,4 C 97 % 1019,4 hPa 0,0 l/m 0 min 0 min 0 W/m 14,6 km/h (3 Bft)
01.11.2014 07:00 10,6 C 9,4 C 97 % 1019,4 hPa 0,0 l/m 0 min 0 min 0 W/m 14,6 km/h (3 Bft)
01.11.2014 07:02 10,6 C 9,4 C 97 % 1019,4 hPa 0,0 l/m 0 min 0 min 0 W/m 16,7 km/h (3 Bft)
01.11.2014 07:04 10,6 C 9,4 C 98 % 1019,4 hPa 0,0 l/m 0 min 0 min 0 W/m 8,4 km/h (2 Bft)
01.11.2014 07:06 10,6 C 9,4 C 98 % 1019,4 hPa 0,0 l/m 0 min 0 min 0 W/m 12,6 km/h (3 Bft)
01.11.2014 07:08 10,6 C 9,4 C 98 % 1019,3 hPa 0,0 l/m 0 min 0 min 0 W/m 14,6 km/h (3 Bft)
01.11.2014 07:10 10,6 C 9,4 C 98 % 1019,4 hPa 0,0 l/m 0 min 0 min 0 W/m 14,6 km/h (3 Bft)
01.11.2014 07:12 10,6 C 9,4 C 98 % 1019,4 hPa 0,0 l/m 0 min 0 min 0 W/m 16,7 km/h (3 Bft)
01.11.2014 07:14 10,6 C 9,4 C 98 % 1019,4 hPa 0,0 l/m 0 min 0 min 0 W/m 12,6 km/h (3 Bft)
01.11.2014 07:16 10,6 C 9,4 C 98 % 1019,4 hPa 0,0 l/m 0 min 0 min 0 W/m 14,6 km/h (3 Bft)
01.11.2014 07:18 10,6 C 9,4 C 98 % 1019,4 hPa 0,0 l/m 0 min 0 min 0 W/m 12,6 km/h (3 Bft)
01.11.2014 07:20 10,6 C 9,4 C 98 % 1019,5 hPa 0,0 l/m 0 min 0 min 0 W/m 14,6 km/h (3 Bft)
01.11.2014 07:22 10,7 C 9,4 C 98 % 1019,5 hPa 0,0 l/m 0 min 0 min 0 W/m 12,6 km/h (3 Bft)
01.11.2014 07:24 10,7 C 9,4 C 98 % 1019,5 hPa 0,0 l/m 0 min 0 min 0 W/m 14,6 km/h (3 Bft)
01.11.2014 07:26 10,7 C 9,4 C 97 % 1019,6 hPa 0,0 l/m 0 min 0 min 0 W/m 14,6 km/h (3 Bft)
01.11.2014 07:28 10,7 C 9,4 C 97 % 1019,6 hPa 0,0 l/m 0 min 0 min 0 W/m 14,6 km/h (3 Bft)
01.11.2014 07:30 10,7 C 9,4 C 97 % 1019,6 hPa 0,0 l/m 0 min 0 min 4 W/m 10,5 km/h (2 Bft)
01.11.2014 07:32 10,7 C 9,4 C 97 % 1019,6 hPa 0,0 l/m 0 min 0 min 5 W/m 8,4 km/h (2 Bft)
01.11.2014 07:34 10,7 C 9,4 C 97 % 1019,6 hPa 0,0 l/m 0 min 0 min 5 W/m 16,7 km/h (3 Bft)
01.11.2014 07:36 10,7 C 9,4 C 97 % 1019,6 hPa 0,0 l/m 0 min 0 min 6 W/m 12,6 km/h (3 Bft)
01.11.2014 07:38 10,7 C 9,4 C 97 % 1019,6 hPa 0,0 l/m 0 min 0 min 7 W/m 14,6 km/h (3 Bft)
01.11.2014 07:40 10,7 C 9,4 C 97 % 1019,6 hPa 0,0 l/m 0 min 0 min 9 W/m 12,6 km/h (3 Bft)
01.11.2014 07:42 10,7 C 10,0 C 98 % 1019,5 hPa 0,0 l/m 0 min 0 min 11 W/m 14,6 km/h (3 Bft)
01.11.2014 07:44 10,7 C 10,0 C 98 % 1019,6 hPa 0,0 l/m 0 min 0 min 13 W/m 12,6 km/h (3 Bft)
01.11.2014 07:46 10,8 C 10,0 C 98 % 1019,5 hPa 0,0 l/m 0 min 0 min 16 W/m 14,6 km/h (3 Bft)
01.11.2014 07:48 10,8 C 10,0 C 98 % 1019,5 hPa 0,0 l/m 0 min 0 min 19 W/m 14,6 km/h (3 Bft)
01.11.2014 07:50 10,8 C 10,0 C 98 % 1019,6 hPa 0,0 l/m 0 min 0 min 21 W/m 16,7 km/h (3 Bft)
01.11.2014 07:52 10,8 C 10,0 C 98 % 1019,6 hPa 0,0 l/m 2 min 0 min 25 W/m 14,6 km/h (3 Bft)
01.11.2014 07:54 10,8 C 10,0 C 98 % 1019,6 hPa 0,0 l/m 2 min 0 min 27 W/m 10,5 km/h (2 Bft)
01.11.2014 07:56 10,8 C 10,0 C 98 % 1019,6 hPa 0,0 l/m 2 min 0 min 30 W/m 16,7 km/h (3 Bft)
01.11.2014 07:58 10,8 C 10,0 C 98 % 1019,6 hPa 0,0 l/m 2 min 0 min 33 W/m 16,7 km/h (3 Bft)
01.11.2014 08:00 10,9 C 10,0 C 98 % 1019,6 hPa 0,0 l/m 0 min 0 min 33 W/m 18,8 km/h (3 Bft)
01.11.2014 08:02 10,9 C 10,0 C 98 % 1019,5 hPa 0,0 l/m 0 min 0 min 33 W/m 14,6 km/h (3 Bft)
01.11.2014 08:04 10,9 C 10,0 C 98 % 1019,5 hPa 0,0 l/m 0 min 0 min 36 W/m 12,6 km/h (3 Bft)
01.11.2014 08:06 10,9 C 10,0 C 98 % 1019,5 hPa 0,0 l/m 0 min 0 min 36 W/m 16,7 km/h (3 Bft)
01.11.2014 08:08 10,9 C 10,0 C 98 % 1019,5 hPa 0,0 l/m 0 min 0 min 34 W/m 14,6 km/h (3 Bft)
01.11.2014 08:10 10,9 C 10,0 C 98 % 1019,5 hPa 0,0 l/m 0 min 0 min 33 W/m 16,7 km/h (3 Bft)
01.11.2014 08:12 11,0 C 10,6 C 98 % 1019,5 hPa 0,0 l/m 0 min 0 min 39 W/m 16,7 km/h (3 Bft)
01.11.2014 08:14 11,0 C 10,6 C 98 % 1019,5 hPa 0,0 l/m 2 min 0 min 53 W/m 16,7 km/h (3 Bft)
01.11.2014 08:16 11,1 C 10,6 C 98 % 1019,5 hPa 0,0 l/m 0 min 0 min 52 W/m 16,7 km/h (3 Bft)
01.11.2014 08:18 11,1 C 10,6 C 98 % 1019,6 hPa 0,0 l/m 2 min 0 min 57 W/m 18,8 km/h (3 Bft)
01.11.2014 08:20 11,1 C 10,6 C 98 % 1019,6 hPa 0,0 l/m 2 min 0 min 65 W/m 14,6 km/h (3 Bft)
01.11.2014 08:22 11,1 C 10,6 C 98 % 1019,6 hPa 0,0 l/m 2 min 0 min 64 W/m 14,6 km/h (3 Bft)
01.11.2014 08:24 11,2 C 10,6 C 98 % 1019,6 hPa 0,0 l/m 0 min 0 min 48 W/m 16,7 km/h (3 Bft)
01.11.2014 08:26 11,2 C 10,6 C 98 % 1019,6 hPa 0,0 l/m 0 min 0 min 44 W/m 20,9 km/h (4 Bft)
01.11.2014 08:28 11,2 C 10,6 C 98 % 1019,6 hPa 0,0 l/m 0 min 0 min 45 W/m 18,8 km/h (3 Bft)
01.11.2014 08:30 11,2 C 10,6 C 98 % 1019,6 hPa 0,0 l/m 0 min 0 min 48 W/m 20,9 km/h (4 Bft)
01.11.2014 08:32 11,3 C 10,6 C 98 % 1019,7 hPa 0,0 l/m 0 min 0 min 66 W/m 16,7 km/h (3 Bft)
01.11.2014 08:34 11,3 C 10,6 C 98 % 1019,7 hPa 0,0 l/m 0 min 0 min 64 W/m 14,6 km/h (3 Bft)
01.11.2014 08:36 11,3 C 10,6 C 98 % 1019,6 hPa 0,0 l/m 0 min 0 min 60 W/m 20,9 km/h (4 Bft)
01.11.2014 08:38 11,4 C 10,6 C 98 % 1019,7 hPa 0,0 l/m 2 min 0 min 81 W/m 18,8 km/h (3 Bft)
01.11.2014 08:40 11,4 C 11,1 C 98 % 1019,7 hPa 0,0 l/m 0 min 0 min 53 W/m 16,7 km/h (3 Bft)
01.11.2014 08:42 11,4 C 11,1 C 98 % 1019,7 hPa 0,0 l/m 0 min 0 min 53 W/m 10,5 km/h (2 Bft)
01.11.2014 08:44 11,4 C 11,1 C 98 % 1019,7 hPa 0,0 l/m 0 min 0 min 53 W/m 12,6 km/h (3 Bft)
01.11.2014 08:46 11,4 C 11,1 C 98 % 1019,7 hPa 0,0 l/m 0 min 0 min 54 W/m 12,6 km/h (3 Bft)
01.11.2014 08:48 11,5 C 11,1 C 98 % 1019,7 hPa 0,0 l/m 0 min 0 min 56 W/m 12,6 km/h (3 Bft)
01.11.2014 08:50 11,5 C 11,1 C 98 % 1019,6 hPa 0,0 l/m 0 min 0 min 57 W/m 14,6 km/h (3 Bft)
01.11.2014 08:52 11,6 C 11,1 C 98 % 1019,7 hPa 0,0 l/m 0 min 0 min 60 W/m 16,7 km/h (3 Bft)
01.11.2014 08:54 11,6 C 11,1 C 98 % 1019,7 hPa 0,0 l/m 0 min 0 min 62 W/m 16,7 km/h (3 Bft)
01.11.2014 08:56 11,6 C 11,1 C 98 % 1019,7 hPa 0,0 l/m 0 min 0 min 62 W/m 14,6 km/h (3 Bft)
01.11.2014 08:58 11,6 C 11,1 C 98 % 1019,7 hPa 0,0 l/m 0 min 0 min 65 W/m 18,8 km/h (3 Bft)
01.11.2014 09:00 11,7 C 11,1 C 98 % 1019,7 hPa 0,0 l/m 0 min 0 min 66 W/m 16,7 km/h (3 Bft)
01.11.2014 09:02 11,7 C 11,1 C 98 % 1019,7 hPa 0,0 l/m 0 min 0 min 68 W/m 18,8 km/h (3 Bft)
01.11.2014 09:04 11,7 C 11,1 C 98 % 1019,6 hPa 0,0 l/m 0 min 0 min 70 W/m 12,6 km/h (3 Bft)
01.11.2014 09:06 11,7 C 11,1 C 98 % 1019,7 hPa 0,0 l/m 0 min 0 min 71 W/m 14,6 km/h (3 Bft)
01.11.2014 09:08 11,8 C 11,1 C 98 % 1019,7 hPa 0,0 l/m 0 min 0 min 72 W/m 16,7 km/h (3 Bft)
01.11.2014 09:10 11,8 C 11,7 C 98 % 1019,7 hPa 0,0 l/m 0 min 0 min 74 W/m 10,5 km/h (2 Bft)
01.11.2014 09:12 11,8 C 11,7 C 98 % 1019,7 hPa 0,0 l/m 0 min 0 min 74 W/m 12,6 km/h (3 Bft)
01.11.2014 09:14 11,9 C 11,7 C 98 % 1019,7 hPa 0,0 l/m 0 min 0 min 76 W/m 16,7 km/h (3 Bft)
01.11.2014 09:16 11,9 C 11,7 C 97 % 1019,7 hPa 0,0 l/m 0 min 0 min 77 W/m 14,6 km/h (3 Bft)
01.11.2014 09:18 11,9 C 11,7 C 98 % 1019,7 hPa 0,0 l/m 0 min 0 min 80 W/m 14,6 km/h (3 Bft)
01.11.2014 09:20 11,9 C 11,7 C 98 % 1019,7 hPa 0,0 l/m 0 min 0 min 83 W/m 14,6 km/h (3 Bft)
01.11.2014 09:22 11,9 C 11,7 C 98 % 1019,6 hPa 0,0 l/m 0 min 0 min 85 W/m 18,8 km/h (3 Bft)
01.11.2014 09:24 12,0 C 11,7 C 98 % 1019,6 hPa 0,0 l/m 0 min 0 min 87 W/m 10,5 km/h (2 Bft)
01.11.2014 09:26 12,0 C 11,7 C 97 % 1019,6 hPa 0,0 l/m 0 min 0 min 89 W/m 14,6 km/h (3 Bft)
01.11.2014 09:28 12,1 C 11,7 C 97 % 1019,6 hPa 0,0 l/m 0 min 0 min 91 W/m 8,4 km/h (2 Bft)
01.11.2014 09:30 12,1 C 11,7 C 97 % 1019,6 hPa 0,0 l/m 0 min 0 min 93 W/m 16,7 km/h (3 Bft)
01.11.2014 09:32 12,1 C 11,7 C 97 % 1019,6 hPa 0,0 l/m 0 min 0 min 96 W/m 16,7 km/h (3 Bft)
01.11.2014 09:34 12,1 C 11,7 C 97 % 1019,6 hPa 0,0 l/m 0 min 0 min 98 W/m 16,7 km/h (3 Bft)
01.11.2014 09:36 12,2 C 11,7 C 97 % 1019,5 hPa 0,0 l/m 0 min 0 min 98 W/m 18,8 km/h (3 Bft)
01.11.2014 09:38 12,2 C 12,2 C 97 % 1019,6 hPa 0,0 l/m 0 min 0 min 100 W/m 16,7 km/h (3 Bft)
01.11.2014 09:40 12,2 C 12,2 C 97 % 1019,5 hPa 0,0 l/m 0 min 0 min 103 W/m 14,6 km/h (3 Bft)
01.11.2014 09:42 12,3 C 12,2 C 97 % 1019,5 hPa 0,0 l/m 0 min 0 min 105 W/m 14,6 km/h (3 Bft)
01.11.2014 09:44 12,3 C 12,2 C 97 % 1019,5 hPa 0,0 l/m 0 min 0 min 110 W/m 10,5 km/h (2 Bft)
01.11.2014 09:46 12,4 C 12,2 C 97 % 1019,6 hPa 0,0 l/m 0 min 0 min 117 W/m 10,5 km/h (2 Bft)
01.11.2014 09:48 12,4 C 12,2 C 97 % 1019,6 hPa 0,0 l/m 0 min 0 min 136 W/m 16,7 km/h (3 Bft)
01.11.2014 09:50 12,4 C 12,2 C 97 % 1019,6 hPa 0,0 l/m 0 min 0 min 129 W/m 12,6 km/h (3 Bft)
01.11.2014 09:52 12,5 C 12,2 C 97 % 1019,5 hPa 0,0 l/m 0 min 0 min 135 W/m 14,6 km/h (3 Bft)
01.11.2014 09:54 12,6 C 12,2 C 97 % 1019,6 hPa 0,0 l/m 0 min 0 min 143 W/m 16,7 km/h (3 Bft)
01.11.2014 09:56 12,6 C 12,8 C 97 % 1019,5 hPa 0,0 l/m 2 min 0 min 154 W/m 14,6 km/h (3 Bft)
01.11.2014 09:58 12,7 C 12,8 C 97 % 1019,5 hPa 0,0 l/m 2 min 0 min 167 W/m 18,8 km/h (3 Bft)
01.11.2014 10:00 12,7 C 12,8 C 97 % 1019,6 hPa 0,0 l/m 2 min 0 min 246 W/m 10,5 km/h (2 Bft)
01.11.2014 10:02 12,8 C 12,8 C 97 % 1019,5 hPa 0,0 l/m 2 min 0 min 273 W/m 14,6 km/h (3 Bft)
01.11.2014 10:04 12,9 C 12,8 C 97 % 1019,5 hPa 0,0 l/m 2 min 0 min 236 W/m 14,6 km/h (3 Bft)
01.11.2014 10:06 12,9 C 12,8 C 97 % 1019,4 hPa 0,0 l/m 2 min 0 min 188 W/m 16,7 km/h (3 Bft)
01.11.2014 10:08 13,1 C 13,3 C 97 % 1019,4 hPa 0,0 l/m 2 min 0 min 182 W/m 16,7 km/h (3 Bft)
01.11.2014 10:10 13,1 C 13,3 C 96 % 1019,5 hPa 0,0 l/m 2 min 0 min 209 W/m 25,1 km/h (4 Bft)
01.11.2014 10:12 13,2 C 13,3 C 96 % 1019,4 hPa 0,0 l/m 2 min 0 min 188 W/m 10,5 km/h (2 Bft)
01.11.2014 10:14 13,2 C 13,3 C 96 % 1019,5 hPa 0,0 l/m 2 min 0 min 204 W/m 18,8 km/h (3 Bft)
01.11.2014 10:16 13,3 C 13,3 C 96 % 1019,5 hPa 0,0 l/m 2 min 0 min 260 W/m 18,8 km/h (3 Bft)
01.11.2014 10:18 13,4 C 13,3 C 96 % 1019,4 hPa 0,0 l/m 2 min 0 min 229 W/m 18,8 km/h (3 Bft)
01.11.2014 10:20 13,5 C 13,3 C 96 % 1019,5 hPa 0,0 l/m 2 min 0 min 229 W/m 18,8 km/h (3 Bft)
01.11.2014 10:22 13,6 C 13,9 C 96 % 1019,5 hPa 0,0 l/m 2 min 0 min 272 W/m 14,6 km/h (3 Bft)
01.11.2014 10:24 13,7 C 13,9 C 96 % 1019,5 hPa 0,0 l/m 2 min 0 min 272 W/m 14,6 km/h (3 Bft)
01.11.2014 10:26 13,8 C 13,9 C 95 % 1019,5 hPa 0,0 l/m 2 min 0 min 298 W/m 23,0 km/h (4 Bft)
01.11.2014 10:28 13,9 C 13,9 C 95 % 1019,5 hPa 0,0 l/m 2 min 0 min 373 W/m 10,5 km/h (2 Bft)
01.11.2014 10:30 14,0 C 13,9 C 95 % 1019,6 hPa 0,0 l/m 2 min 0 min 385 W/m 14,6 km/h (3 Bft)
01.11.2014 10:32 14,2 C 13,9 C 95 % 1019,4 hPa 0,0 l/m 2 min 0 min 361 W/m 20,9 km/h (4 Bft)
01.11.2014 10:34 14,2 C 13,9 C 95 % 1019,4 hPa 0,0 l/m 2 min 0 min 250 W/m 20,9 km/h (4 Bft)
01.11.2014 10:36 14,3 C 13,9 C 95 % 1019,4 hPa 0,0 l/m 2 min 0 min 206 W/m 14,6 km/h (3 Bft)
01.11.2014 10:38 14,4 C 13,9 C 94 % 1019,4 hPa 0,0 l/m 2 min 0 min 323 W/m 14,6 km/h (3 Bft)
01.11.2014 10:40 14,5 C 13,9 C 93 % 1019,5 hPa 0,0 l/m 2 min 0 min 239 W/m 27,2 km/h (4 Bft)
01.11.2014 10:42 14,6 C 13,3 C 93 % 1019,4 hPa 0,0 l/m 2 min 0 min 251 W/m 20,9 km/h (4 Bft)
01.11.2014 10:44 14,7 C 13,9 C 92 % 1019,4 hPa 0,0 l/m 2 min 0 min 335 W/m 23,0 km/h (4 Bft)
01.11.2014 10:46 14,7 C 13,9 C 91 % 1019,5 hPa 0,0 l/m 2 min 0 min 354 W/m 23,0 km/h (4 Bft)
01.11.2014 10:48 14,8 C 13,9 C 91 % 1019,4 hPa 0,0 l/m 2 min 0 min 353 W/m 18,8 km/h (3 Bft)
01.11.2014 10:50 14,9 C 13,9 C 90 % 1019,4 hPa 0,0 l/m 2 min 0 min 353 W/m 23,0 km/h (4 Bft)
01.11.2014 10:52 15,1 C 13,9 C 90 % 1019,3 hPa 0,0 l/m 2 min 0 min 355 W/m 20,9 km/h (4 Bft)
01.11.2014 10:54 15,2 C 13,9 C 90 % 1019,4 hPa 0,0 l/m 2 min 0 min 350 W/m 23,0 km/h (4 Bft)
01.11.2014 10:56 15,3 C 13,9 C 89 % 1019,4 hPa 0,0 l/m 2 min 0 min 352 W/m 16,7 km/h (3 Bft)
01.11.2014 10:58 15,4 C 13,9 C 89 % 1019,4 hPa 0,0 l/m 2 min 0 min 358 W/m 20,9 km/h (4 Bft)
01.11.2014 11:00 15,5 C 13,9 C 88 % 1019,3 hPa 0,0 l/m 2 min 0 min 360 W/m 16,7 km/h (3 Bft)
01.11.2014 11:02 15,6 C 13,9 C 88 % 1019,4 hPa 0,0 l/m 2 min 0 min 362 W/m 16,7 km/h (3 Bft)
01.11.2014 11:04 15,7 C 13,9 C 87 % 1019,4 hPa 0,0 l/m 2 min 0 min 365 W/m 16,7 km/h (3 Bft)
01.11.2014 11:06 15,8 C 14,4 C 87 % 1019,4 hPa 0,0 l/m 2 min 0 min 361 W/m 18,8 km/h (3 Bft)
01.11.2014 11:08 15,9 C 14,4 C 86 % 1019,4 hPa 0,0 l/m 2 min 0 min 342 W/m 18,8 km/h (3 Bft)
01.11.2014 11:10 16,0 C 14,4 C 85 % 1019,4 hPa 0,0 l/m 2 min 0 min 374 W/m 16,7 km/h (3 Bft)
01.11.2014 11:12 16,1 C 14,4 C 85 % 1019,4 hPa 0,0 l/m 2 min 0 min 363 W/m 16,7 km/h (3 Bft)
01.11.2014 11:14 16,2 C 14,4 C 85 % 1019,4 hPa 0,0 l/m 2 min 0 min 323 W/m 16,7 km/h (3 Bft)
01.11.2014 11:16 16,3 C 14,4 C 84 % 1019,3 hPa 0,0 l/m 2 min 0 min 372 W/m 18,8 km/h (3 Bft)
01.11.2014 11:18 16,4 C 14,4 C 84 % 1019,3 hPa 0,0 l/m 2 min 0 min 374 W/m 18,8 km/h (3 Bft)
01.11.2014 11:20 16,4 C 14,4 C 84 % 1019,4 hPa 0,0 l/m 2 min 0 min 385 W/m 27,2 km/h (4 Bft)
01.11.2014 11:22 16,5 C 15,0 C 83 % 1019,3 hPa 0,0 l/m 2 min 0 min 359 W/m 18,8 km/h (3 Bft)
01.11.2014 11:24 16,6 C 15,0 C 83 % 1019,4 hPa 0,0 l/m 2 min 0 min 402 W/m 20,9 km/h (4 Bft)
01.11.2014 11:26 16,7 C 15,0 C 83 % 1019,3 hPa 0,0 l/m 2 min 0 min 414 W/m 18,8 km/h (3 Bft)
01.11.2014 11:28 16,8 C 15,0 C 83 % 1019,3 hPa 0,0 l/m 2 min 0 min 435 W/m 16,7 km/h (3 Bft)
01.11.2014 11:30 16,8 C 15,0 C 82 % 1019,2 hPa 0,0 l/m 2 min 0 min 439 W/m 23,0 km/h (4 Bft)
01.11.2014 11:32 16,9 C 15,0 C 82 % 1019,2 hPa 0,0 l/m 2 min 0 min 441 W/m 18,8 km/h (3 Bft)
01.11.2014 11:34 17,1 C 15,0 C 81 % 1019,2 hPa 0,0 l/m 2 min 0 min 434 W/m 29,3 km/h (5 Bft)
01.11.2014 11:36 17,1 C 15,6 C 81 % 1019,1 hPa 0,0 l/m 2 min 0 min 432 W/m 20,9 km/h (4 Bft)
01.11.2014 11:38 17,2 C 15,6 C 81 % 1019,3 hPa 0,0 l/m 2 min 0 min 406 W/m 14,6 km/h (3 Bft)
01.11.2014 11:40 17,3 C 15,0 C 81 % 1019,2 hPa 0,0 l/m 2 min 0 min 205 W/m 16,7 km/h (3 Bft)
01.11.2014 11:42 17,3 C 15,0 C 80 % 1019,3 hPa 0,0 l/m 2 min 0 min 206 W/m 18,8 km/h (3 Bft)
01.11.2014 11:44 17,3 C 15,0 C 80 % 1019,2 hPa 0,0 l/m 0 min 0 min 193 W/m 20,9 km/h (4 Bft)
01.11.2014 11:46 17,3 C 15,0 C 80 % 1019,2 hPa 0,0 l/m 0 min 0 min 180 W/m 12,6 km/h (3 Bft)
01.11.2014 11:48 17,3 C 15,0 C 80 % 1019,2 hPa 0,0 l/m 0 min 0 min 188 W/m 16,7 km/h (3 Bft)
01.11.2014 11:50 17,3 C 15,0 C 80 % 1019,2 hPa 0,0 l/m 0 min 0 min 193 W/m 18,8 km/h (3 Bft)
01.11.2014 11:52 17,3 C 15,0 C 80 % 1019,2 hPa 0,0 l/m 2 min 0 min 210 W/m 14,6 km/h (3 Bft)
01.11.2014 11:54 17,3 C 15,0 C 80 % 1019,2 hPa 0,0 l/m 2 min 0 min 285 W/m 16,7 km/h (3 Bft)
01.11.2014 11:56 17,3 C 15,6 C 80 % 1019,2 hPa 0,0 l/m 2 min 0 min 320 W/m 14,6 km/h (3 Bft)
01.11.2014 11:58 17,3 C 15,6 C 81 % 1019,2 hPa 0,0 l/m 2 min 0 min 252 W/m 20,9 km/h (4 Bft)
01.11.2014 12:00 17,3 C 15,6 C 80 % 1019,1 hPa 0,0 l/m 2 min 0 min 232 W/m 14,6 km/h (3 Bft)
01.11.2014 12:02 17,3 C 15,6 C 80 % 1019,1 hPa 0,0 l/m 2 min 0 min 290 W/m 16,7 km/h (3 Bft)
01.11.2014 12:05 17,3 C 15,6 C 81 % 1019,1 hPa 0,0 l/m 2 min 0 min 271 W/m 16,7 km/h (3 Bft)
01.11.2014 12:06 17,3 C 15,6 C 80 % 1019,1 hPa 0,0 l/m 1 min 0 min 272 W/m 16,7 km/h (3 Bft)
01.11.2014 12:08 17,4 C 15,6 C 80 % 1019,1 hPa 0,0 l/m 2 min 0 min 245 W/m 20,9 km/h (4 Bft)
01.11.2014 12:10 17,4 C 16,1 C 80 % 1019,0 hPa 0,0 l/m 2 min 0 min 249 W/m 14,6 km/h (3 Bft)
01.11.2014 12:12 17,4 C 16,1 C 80 % 1019,0 hPa 0,0 l/m 2 min 0 min 257 W/m 18,8 km/h (3 Bft)
01.11.2014 12:14 17,4 C 16,1 C 80 % 1018,9 hPa 0,0 l/m 2 min 0 min 255 W/m 18,8 km/h (3 Bft)
01.11.2014 12:16 17,4 C 16,1 C 81 % 1018,8 hPa 0,0 l/m 2 min 0 min 219 W/m 20,9 km/h (4 Bft)
01.11.2014 12:18 17,4 C 16,1 C 81 % 1018,8 hPa 0,0 l/m 2 min 0 min 209 W/m 23,0 km/h (4 Bft)
01.11.2014 12:20 17,5 C 16,1 C 81 % 1018,8 hPa 0,0 l/m 2 min 0 min 214 W/m 18,8 km/h (3 Bft)
01.11.2014 12:22 17,5 C 16,1 C 81 % 1018,8 hPa 0,0 l/m 2 min 0 min 220 W/m 18,8 km/h (3 Bft)
01.11.2014 12:24 17,5 C 16,1 C 81 % 1018,8 hPa 0,0 l/m 2 min 0 min 231 W/m 18,8 km/h (3 Bft)
01.11.2014 12:26 17,5 C 16,1 C 81 % 1018,8 hPa 0,0 l/m 2 min 0 min 249 W/m 20,9 km/h (4 Bft)
01.11.2014 12:28 17,6 C 16,1 C 81 % 1018,7 hPa 0,0 l/m 2 min 0 min 222 W/m 18,8 km/h (3 Bft)
01.11.2014 12:30 17,6 C 16,1 C 81 % 1018,8 hPa 0,0 l/m 2 min 0 min 210 W/m 25,1 km/h (4 Bft)
01.11.2014 12:32 17,6 C 16,1 C 81 % 1018,7 hPa 0,0 l/m 0 min 0 min 197 W/m 20,9 km/h (4 Bft)
01.11.2014 12:34 17,6 C 16,1 C 81 % 1018,7 hPa 0,0 l/m 0 min 0 min 194 W/m 20,9 km/h (4 Bft)
01.11.2014 12:36 17,6 C 16,1 C 80 % 1018,7 hPa 0,0 l/m 0 min 0 min 193 W/m 18,8 km/h (3 Bft)
01.11.2014 12:38 17,6 C 16,1 C 81 % 1018,7 hPa 0,0 l/m 0 min 0 min 194 W/m 16,7 km/h (3 Bft)
01.11.2014 12:40 17,6 C 16,1 C 81 % 1018,7 hPa 0,0 l/m 0 min 0 min 198 W/m 14,6 km/h (3 Bft)
01.11.2014 12:42 17,6 C 16,1 C 81 % 1018,7 hPa 0,0 l/m 0 min 0 min 194 W/m 12,6 km/h (3 Bft)
01.11.2014 12:44 17,7 C 16,1 C 81 % 1018,7 hPa 0,0 l/m 0 min 0 min 191 W/m 14,6 km/h (3 Bft)
01.11.2014 12:46 17,7 C 16,7 C 81 % 1018,7 hPa 0,0 l/m 0 min 0 min 189 W/m 23,0 km/h (4 Bft)
01.11.2014 12:48 17,7 C 16,7 C 81 % 1018,6 hPa 0,0 l/m 0 min 0 min 188 W/m 14,6 km/h (3 Bft)
01.11.2014 12:50 17,7 C 16,7 C 81 % 1018,6 hPa 0,0 l/m 0 min 0 min 188 W/m 16,7 km/h (3 Bft)
01.11.2014 12:52 17,7 C 16,7 C 81 % 1018,6 hPa 0,0 l/m 0 min 0 min 192 W/m 20,9 km/h (4 Bft)
01.11.2014 12:54 17,7 C 16,7 C 81 % 1018,6 hPa 0,0 l/m 0 min 0 min 196 W/m 12,6 km/h (3 Bft)
01.11.2014 12:56 17,7 C 16,7 C 81 % 1018,4 hPa 0,0 l/m 2 min 0 min 220 W/m 16,7 km/h (3 Bft)
01.11.2014 12:58 17,7 C 16,7 C 81 % 1018,4 hPa 0,0 l/m 2 min 0 min 228 W/m 16,7 km/h (3 Bft)
01.11.2014 13:00 17,7 C 16,7 C 81 % 1018,4 hPa 0,0 l/m 2 min 0 min 215 W/m 16,7 km/h (3 Bft)
01.11.2014 13:02 17,7 C 16,7 C 81 % 1018,4 hPa 0,0 l/m 2 min 0 min 279 W/m 27,2 km/h (4 Bft)
01.11.2014 13:04 17,8 C 16,7 C 81 % 1018,4 hPa 0,0 l/m 2 min 0 min 435 W/m 20,9 km/h (4 Bft)
01.11.2014 13:06 17,8 C 16,7 C 81 % 1018,4 hPa 0,0 l/m 2 min 0 min 477 W/m 18,8 km/h (3 Bft)
01.11.2014 13:08 17,9 C 16,7 C 81 % 1018,4 hPa 0,0 l/m 2 min 0 min 473 W/m 27,2 km/h (4 Bft)
01.11.2014 13:10 18,0 C 16,7 C 81 % 1018,4 hPa 0,0 l/m 2 min 0 min 416 W/m 20,9 km/h (4 Bft)
01.11.2014 13:12 18,1 C 16,7 C 80 % 1018,4 hPa 0,0 l/m 2 min 0 min 233 W/m 27,2 km/h (4 Bft)
01.11.2014 13:14 18,2 C 16,7 C 80 % 1018,4 hPa 0,0 l/m 2 min 0 min 219 W/m 18,8 km/h (3 Bft)
01.11.2014 13:16 18,2 C 16,7 C 80 % 1018,4 hPa 0,0 l/m 2 min 0 min 265 W/m 16,7 km/h (3 Bft)
01.11.2014 13:18 18,3 C 16,7 C 79 % 1018,4 hPa 0,0 l/m 2 min 0 min 211 W/m 18,8 km/h (3 Bft)
01.11.2014 13:20 18,3 C 16,7 C 79 % 1018,4 hPa 0,0 l/m 2 min 0 min 291 W/m 16,7 km/h (3 Bft)
01.11.2014 13:22 18,4 C 16,7 C 79 % 1018,4 hPa 0,0 l/m 2 min 0 min 328 W/m 18,8 km/h (3 Bft)
01.11.2014 13:24 18,4 C 16,7 C 79 % 1018,4 hPa 0,0 l/m 2 min 0 min 204 W/m 18,8 km/h (3 Bft)
01.11.2014 13:26 18,5 C 16,7 C 79 % 1018,4 hPa 0,0 l/m 2 min 0 min 331 W/m 25,1 km/h (4 Bft)
01.11.2014 13:28 18,6 C 16,7 C 79 % 1018,3 hPa 0,0 l/m 2 min 0 min 386 W/m 18,8 km/h (3 Bft)
01.11.2014 13:30 18,6 C 16,7 C 79 % 1018,3 hPa 0,0 l/m 2 min 0 min 402 W/m 18,8 km/h (3 Bft)
01.11.2014 13:32 18,7 C 16,7 C 79 % 1018,2 hPa 0,0 l/m 2 min 0 min 404 W/m 16,7 km/h (3 Bft)
01.11.2014 13:34 18,8 C 17,2 C 79 % 1018,2 hPa 0,0 l/m 2 min 0 min 374 W/m 20,9 km/h (4 Bft)
01.11.2014 13:36 18,8 C 17,2 C 79 % 1018,2 hPa 0,0 l/m 2 min 0 min 283 W/m 14,6 km/h (3 Bft)
01.11.2014 13:38 18,9 C 17,2 C 79 % 1018,1 hPa 0,0 l/m 2 min 0 min 262 W/m 23,0 km/h (4 Bft)
01.11.2014 13:40 19,0 C 17,2 C 78 % 1018,2 hPa 0,0 l/m 2 min 0 min 402 W/m 20,9 km/h (4 Bft)
01.11.2014 13:42 19,1 C 17,2 C 78 % 1018,1 hPa 0,0 l/m 2 min 0 min 395 W/m 14,6 km/h (3 Bft)
01.11.2014 13:44 19,2 C 17,2 C 78 % 1018,1 hPa 0,0 l/m 2 min 0 min 385 W/m 14,6 km/h (3 Bft)
01.11.2014 13:46 19,3 C 17,2 C 78 % 1018,1 hPa 0,0 l/m 2 min 0 min 373 W/m 18,8 km/h (3 Bft)
01.11.2014 13:48 19,4 C 17,2 C 77 % 1018,1 hPa 0,0 l/m 2 min 0 min 363 W/m 18,8 km/h (3 Bft)
01.11.2014 13:50 19,4 C 17,2 C 77 % 1018,1 hPa 0,0 l/m 2 min 0 min 333 W/m 20,9 km/h (4 Bft)
01.11.2014 13:52 19,5 C 17,2 C 76 % 1018,1 hPa 0,0 l/m 2 min 0 min 210 W/m 20,9 km/h (4 Bft)
01.11.2014 13:54 19,6 C 17,2 C 76 % 1018,1 hPa 0,0 l/m 0 min 0 min 146 W/m 20,9 km/h (4 Bft)
01.11.2014 13:56 19,6 C 17,2 C 76 % 1018,1 hPa 0,0 l/m 2 min 0 min 191 W/m 14,6 km/h (3 Bft)
01.11.2014 13:58 19,6 C 17,2 C 76 % 1018,2 hPa 0,0 l/m 2 min 0 min 329 W/m 18,8 km/h (3 Bft)
01.11.2014 14:00 19,7 C 17,2 C 76 % 1018,1 hPa 0,0 l/m 2 min 0 min 326 W/m 12,6 km/h (3 Bft)
01.11.2014 14:02 19,7 C 17,2 C 76 % 1018,2 hPa 0,0 l/m 2 min 0 min 321 W/m 16,7 km/h (3 Bft)
01.11.2014 14:04 19,7 C 17,2 C 76 % 1018,1 hPa 0,0 l/m 2 min 0 min 315 W/m 16,7 km/h (3 Bft)
01.11.2014 14:06 19,8 C 17,2 C 76 % 1018,2 hPa 0,0 l/m 2 min 0 min 309 W/m 16,7 km/h (3 Bft)
01.11.2014 14:08 19,8 C 17,2 C 76 % 1018,1 hPa 0,0 l/m 2 min 0 min 299 W/m 16,7 km/h (3 Bft)
01.11.2014 14:10 19,8 C 17,2 C 75 % 1018,0 hPa 0,0 l/m 2 min 0 min 205 W/m 23,0 km/h (4 Bft)
01.11.2014 14:12 19,9 C 17,2 C 75 % 1018,0 hPa 0,0 l/m 2 min 0 min 287 W/m 20,9 km/h (4 Bft)
01.11.2014 14:14 19,9 C 17,2 C 75 % 1017,9 hPa 0,0 l/m 2 min 0 min 294 W/m 18,8 km/h (3 Bft)
01.11.2014 14:16 19,9 C 17,2 C 75 % 1017,9 hPa 0,0 l/m 2 min 0 min 288 W/m 16,7 km/h (3 Bft)
01.11.2014 14:18 20,0 C 17,2 C 75 % 1017,9 hPa 0,0 l/m 2 min 0 min 248 W/m 18,8 km/h (3 Bft)
01.11.2014 14:20 20,0 C 17,2 C 76 % 1018,0 hPa 0,0 l/m 2 min 0 min 282 W/m 10,5 km/h (2 Bft)
01.11.2014 14:22 20,1 C 17,2 C 75 % 1017,9 hPa 0,0 l/m 2 min 0 min 279 W/m 20,9 km/h (4 Bft)
01.11.2014 14:24 20,1 C 17,2 C 75 % 1017,9 hPa 0,0 l/m 2 min 0 min 278 W/m 14,6 km/h (3 Bft)
01.11.2014 14:26 20,1 C 17,2 C 75 % 1017,9 hPa 0,0 l/m 2 min 0 min 277 W/m 16,7 km/h (3 Bft)
01.11.2014 14:28 20,1 C 17,2 C 75 % 1017,9 hPa 0,0 l/m 2 min 0 min 272 W/m 18,8 km/h (3 Bft)
01.11.2014 14:30 20,2 C 17,8 C 75 % 1017,9 hPa 0,0 l/m 2 min 0 min 267 W/m 23,0 km/h (4 Bft)
01.11.2014 14:32 20,2 C 17,8 C 75 % 1017,8 hPa 0,0 l/m 2 min 0 min 260 W/m 12,6 km/h (3 Bft)
01.11.2014 14:34 20,2 C 17,8 C 75 % 1017,8 hPa 0,0 l/m 2 min 0 min 257 W/m 16,7 km/h (3 Bft)
01.11.2014 14:36 20,2 C 17,8 C 75 % 1017,8 hPa 0,0 l/m 2 min 0 min 253 W/m 23,0 km/h (4 Bft)
01.11.2014 14:38 20,3 C 17,8 C 74 % 1017,8 hPa 0,0 l/m 2 min 0 min 248 W/m 16,7 km/h (3 Bft)
01.11.2014 14:40 20,3 C 17,8 C 74 % 1017,8 hPa 0,0 l/m 2 min 0 min 215 W/m 18,8 km/h (3 Bft)
01.11.2014 14:42 20,3 C 17,8 C 74 % 1017,8 hPa 0,0 l/m 2 min 0 min 178 W/m 10,5 km/h (2 Bft)
01.11.2014 14:44 20,3 C 17,2 C 74 % 1017,8 hPa 0,0 l/m 0 min 0 min 76 W/m 12,6 km/h (3 Bft)
01.11.2014 14:46 20,3 C 17,2 C 74 % 1017,9 hPa 0,0 l/m 0 min 0 min 81 W/m 14,6 km/h (3 Bft)
01.11.2014 14:48 20,2 C 16,7 C 74 % 1017,8 hPa 0,0 l/m 0 min 0 min 117 W/m 14,6 km/h (3 Bft)
01.11.2014 14:50 20,2 C 16,7 C 74 % 1017,8 hPa 0,0 l/m 0 min 0 min 81 W/m 14,6 km/h (3 Bft)
01.11.2014 14:52 20,1 C 16,7 C 74 % 1017,8 hPa 0,0 l/m 0 min 0 min 60 W/m 14,6 km/h (3 Bft)
01.11.2014 14:54 20,1 C 16,7 C 74 % 1017,8 hPa 0,0 l/m 0 min 0 min 66 W/m 14,6 km/h (3 Bft)
01.11.2014 14:56 19,9 C 16,7 C 74 % 1017,8 hPa 0,0 l/m 0 min 0 min 60 W/m 16,7 km/h (3 Bft)
01.11.2014 14:58 19,9 C 16,7 C 74 % 1017,8 hPa 0,0 l/m 0 min 0 min 71 W/m 16,7 km/h (3 Bft)
01.11.2014 15:00 19,8 C 16,7 C 75 % 1017,7 hPa 0,0 l/m 2 min 0 min 133 W/m 18,8 km/h (3 Bft)
01.11.2014 15:02 19,7 C 16,7 C 75 % 1017,7 hPa 0,0 l/m 2 min 0 min 200 W/m 18,8 km/h (3 Bft)
01.11.2014 15:04 19,7 C 16,7 C 76 % 1017,6 hPa 0,0 l/m 2 min 0 min 208 W/m 16,7 km/h (3 Bft)
01.11.2014 15:06 19,7 C 16,7 C 76 % 1017,6 hPa 0,0 l/m 2 min 0 min 212 W/m 16,7 km/h (3 Bft)
01.11.2014 15:08 19,6 C 17,2 C 76 % 1017,6 hPa 0,0 l/m 2 min 0 min 212 W/m 16,7 km/h (3 Bft)
01.11.2014 15:10 19,6 C 17,2 C 76 % 1017,6 hPa 0,0 l/m 2 min 0 min 203 W/m 18,8 km/h (3 Bft)
01.11.2014 15:12 19,6 C 17,2 C 76 % 1017,6 hPa 0,0 l/m 2 min 0 min 142 W/m 12,6 km/h (3 Bft)
01.11.2014 15:14 19,6 C 17,2 C 76 % 1017,6 hPa 0,0 l/m 2 min 0 min 158 W/m 12,6 km/h (3 Bft)
01.11.2014 15:16 19,6 C 17,2 C 76 % 1017,5 hPa 0,0 l/m 2 min 0 min 124 W/m 20,9 km/h (4 Bft)
01.11.2014 15:18 19,6 C 17,2 C 76 % 1017,5 hPa 0,0 l/m 2 min 0 min 128 W/m 12,6 km/h (3 Bft)
01.11.2014 15:20 19,6 C 17,2 C 76 % 1017,5 hPa 0,0 l/m 2 min 0 min 153 W/m 16,7 km/h (3 Bft)
01.11.2014 15:22 19,6 C 17,2 C 77 % 1017,4 hPa 0,0 l/m 2 min 0 min 147 W/m 16,7 km/h (3 Bft)
01.11.2014 15:24 19,6 C 17,2 C 77 % 1017,4 hPa 0,0 l/m 2 min 0 min 150 W/m 16,7 km/h (3 Bft)
01.11.2014 15:26 19,6 C 17,2 C 77 % 1017,3 hPa 0,0 l/m 2 min 0 min 149 W/m 18,8 km/h (3 Bft)
01.11.2014 15:28 19,6 C 17,2 C 77 % 1017,4 hPa 0,0 l/m 2 min 0 min 133 W/m 14,6 km/h (3 Bft)
01.11.2014 15:30 19,6 C 17,2 C 77 % 1017,4 hPa 0,0 l/m 0 min 0 min 90 W/m 14,6 km/h (3 Bft)
01.11.2014 15:32 19,6 C 16,7 C 77 % 1017,4 hPa 0,0 l/m 0 min 0 min 66 W/m 12,6 km/h (3 Bft)
01.11.2014 15:34 19,6 C 16,7 C 77 % 1017,4 hPa 0,0 l/m 0 min 0 min 62 W/m 12,6 km/h (3 Bft)
01.11.2014 15:36 19,5 C 16,7 C 77 % 1017,4 hPa 0,0 l/m 0 min 0 min 66 W/m 16,7 km/h (3 Bft)
01.11.2014 15:38 19,5 C 16,7 C 77 % 1017,4 hPa 0,0 l/m 0 min 0 min 49 W/m 14,6 km/h (3 Bft)
01.11.2014 15:40 19,4 C 16,7 C 77 % 1017,4 hPa 0,0 l/m 0 min 0 min 44 W/m 14,6 km/h (3 Bft)
01.11.2014 15:42 19,4 C 16,7 C 77 % 1017,3 hPa 0,0 l/m 0 min 0 min 40 W/m 12,6 km/h (3 Bft)
01.11.2014 15:44 19,3 C 16,1 C 77 % 1017,3 hPa 0,0 l/m 0 min 0 min 39 W/m 12,6 km/h (3 Bft)
01.11.2014 15:46 19,3 C 16,1 C 77 % 1017,4 hPa 0,0 l/m 0 min 0 min 39 W/m 10,5 km/h (2 Bft)
01.11.2014 15:48 19,3 C 16,1 C 77 % 1017,4 hPa 0,0 l/m 0 min 0 min 39 W/m 12,6 km/h (3 Bft)
01.11.2014 15:50 19,2 C 16,1 C 78 % 1017,4 hPa 0,0 l/m 0 min 0 min 40 W/m 14,6 km/h (3 Bft)
01.11.2014 15:52 19,2 C 16,1 C 78 % 1017,4 hPa 0,0 l/m 0 min 0 min 40 W/m 14,6 km/h (3 Bft)
01.11.2014 15:54 19,2 C 16,1 C 78 % 1017,5 hPa 0,0 l/m 0 min 0 min 44 W/m 10,5 km/h (2 Bft)
01.11.2014 15:56 19,1 C 16,1 C 78 % 1017,4 hPa 0,0 l/m 0 min 0 min 46 W/m 10,5 km/h (2 Bft)
01.11.2014 15:58 19,1 C 16,1 C 78 % 1017,3 hPa 0,0 l/m 0 min 0 min 47 W/m 12,6 km/h (3 Bft)
01.11.2014 16:00 19,0 C 16,1 C 78 % 1017,4 hPa 0,0 l/m 0 min 0 min 50 W/m 10,5 km/h (2 Bft)
01.11.2014 16:02 18,9 C 16,1 C 78 % 1017,4 hPa 0,0 l/m 0 min 0 min 51 W/m 14,6 km/h (3 Bft)
01.11.2014 16:04 18,9 C 16,1 C 78 % 1017,3 hPa 0,0 l/m 0 min 0 min 53 W/m 10,5 km/h (2 Bft)
01.11.2014 16:06 18,8 C 16,1 C 78 % 1017,3 hPa 0,0 l/m 0 min 0 min 54 W/m 14,6 km/h (3 Bft)
01.11.2014 16:08 18,8 C 16,1 C 79 % 1017,4 hPa 0,0 l/m 0 min 0 min 53 W/m 14,6 km/h (3 Bft)
01.11.2014 16:10 18,8 C 16,1 C 79 % 1017,3 hPa 0,0 l/m 0 min 0 min 53 W/m 8,4 km/h (2 Bft)
01.11.2014 16:12 18,7 C 16,1 C 79 % 1017,4 hPa 0,0 l/m 0 min 0 min 51 W/m 12,6 km/h (3 Bft)
01.11.2014 16:14 18,7 C 16,1 C 79 % 1017,4 hPa 0,0 l/m 0 min 0 min 51 W/m 8,4 km/h (2 Bft)
01.11.2014 16:16 18,7 C 16,1 C 79 % 1017,4 hPa 0,0 l/m 0 min 0 min 49 W/m 8,4 km/h (2 Bft)
01.11.2014 16:18 18,6 C 16,1 C 79 % 1017,4 hPa 0,0 l/m 0 min 0 min 47 W/m 8,4 km/h (2 Bft)
01.11.2014 16:20 18,6 C 16,1 C 79 % 1017,4 hPa 0,0 l/m 0 min 0 min 48 W/m 10,5 km/h (2 Bft)
01.11.2014 16:22 18,6 C 16,1 C 80 % 1017,4 hPa 0,0 l/m 0 min 0 min 47 W/m 8,4 km/h (2 Bft)
01.11.2014 16:24 18,6 C 16,1 C 80 % 1017,3 hPa 0,0 l/m 2 min 0 min 47 W/m 10,5 km/h (2 Bft)
01.11.2014 16:26 18,6 C 16,1 C 80 % 1017,4 hPa 0,0 l/m 2 min 0 min 47 W/m 10,5 km/h (2 Bft)
01.11.2014 16:28 18,5 C 16,1 C 80 % 1017,3 hPa 0,0 l/m 2 min 0 min 46 W/m 12,6 km/h (3 Bft)
01.11.2014 16:30 18,5 C 16,1 C 80 % 1017,3 hPa 0,0 l/m 2 min 0 min 46 W/m 8,4 km/h (2 Bft)
01.11.2014 16:32 18,4 C 16,1 C 80 % 1017,3 hPa 0,0 l/m 2 min 0 min 45 W/m 10,5 km/h (2 Bft)
01.11.2014 16:34 18,4 C 16,1 C 80 % 1017,3 hPa 0,0 l/m 2 min 0 min 43 W/m 10,5 km/h (2 Bft)
01.11.2014 16:36 18,4 C 16,1 C 80 % 1017,3 hPa 0,0 l/m 2 min 0 min 41 W/m 8,4 km/h (2 Bft)
01.11.2014 16:38 18,4 C 16,1 C 80 % 1017,2 hPa 0,0 l/m 2 min 0 min 40 W/m 12,6 km/h (3 Bft)
01.11.2014 16:40 18,3 C 16,1 C 80 % 1017,2 hPa 0,0 l/m 2 min 0 min 39 W/m 10,5 km/h (2 Bft)
01.11.2014 16:42 18,3 C 16,1 C 80 % 1017,2 hPa 0,0 l/m 2 min 0 min 36 W/m 10,5 km/h (2 Bft)
01.11.2014 16:44 18,3 C 15,6 C 80 % 1017,2 hPa 0,0 l/m 2 min 0 min 34 W/m 8,4 km/h (2 Bft)
01.11.2014 16:46 18,3 C 15,6 C 81 % 1017,2 hPa 0,0 l/m 2 min 0 min 31 W/m 10,5 km/h (2 Bft)
01.11.2014 16:48 18,3 C 15,6 C 81 % 1017,2 hPa 0,0 l/m 2 min 0 min 27 W/m 16,7 km/h (3 Bft)
01.11.2014 16:50 18,2 C 15,6 C 81 % 1017,1 hPa 0,0 l/m 2 min 0 min 24 W/m 14,6 km/h (3 Bft)
01.11.2014 16:52 18,2 C 15,6 C 81 % 1017,1 hPa 0,0 l/m 2 min 0 min 20 W/m 10,5 km/h (2 Bft)
01.11.2014 16:54 18,2 C 15,6 C 81 % 1017,1 hPa 0,0 l/m 2 min 0 min 18 W/m 14,6 km/h (3 Bft)
01.11.2014 16:56 18,1 C 15,6 C 81 % 1017,1 hPa 0,0 l/m 2 min 0 min 16 W/m 12,6 km/h (3 Bft)
01.11.2014 16:58 18,1 C 15,0 C 81 % 1017,1 hPa 0,0 l/m 0 min 0 min 13 W/m 10,5 km/h (2 Bft)
01.11.2014 17:00 18,1 C 15,0 C 81 % 1017,1 hPa 0,0 l/m 0 min 0 min 12 W/m 12,6 km/h (3 Bft)
01.11.2014 17:02 18,0 C 15,0 C 81 % 1017,1 hPa 0,0 l/m 0 min 0 min 11 W/m 12,6 km/h (3 Bft)
01.11.2014 17:04 17,9 C 15,0 C 81 % 1017,0 hPa 0,0 l/m 0 min 0 min 9 W/m 12,6 km/h (3 Bft)
01.11.2014 17:06 17,9 C 15,0 C 81 % 1017,0 hPa 0,0 l/m 0 min 0 min 7 W/m 10,5 km/h (2 Bft)
01.11.2014 17:08 17,9 C 14,4 C 81 % 1017,0 hPa 0,0 l/m 0 min 0 min 7 W/m 10,5 km/h (2 Bft)
01.11.2014 17:10 17,8 C 14,4 C 81 % 1017,0 hPa 0,0 l/m 0 min 0 min 5 W/m 10,5 km/h (2 Bft)
01.11.2014 17:12 17,8 C 14,4 C 81 % 1017,0 hPa 0,0 l/m 0 min 0 min 5 W/m 12,6 km/h (3 Bft)
01.11.2014 17:14 17,7 C 14,4 C 82 % 1017,0 hPa 0,0 l/m 0 min 0 min 2 W/m 10,5 km/h (2 Bft)
01.11.2014 17:16 17,7 C 14,4 C 82 % 1017,0 hPa 0,0 l/m 0 min 0 min 0 W/m 10,5 km/h (2 Bft)
01.11.2014 17:18 17,6 C 14,4 C 82 % 1017,0 hPa 0,0 l/m 0 min 0 min 0 W/m 10,5 km/h (2 Bft)
01.11.2014 17:20 17,6 C 14,4 C 82 % 1017,0 hPa 0,0 l/m 0 min 0 min 0 W/m 10,5 km/h (2 Bft)
01.11.2014 17:22 17,6 C 14,4 C 82 % 1017,0 hPa 0,0 l/m 0 min 0 min 0 W/m 10,5 km/h (2 Bft)
01.11.2014 17:24 17,5 C 14,4 C 82 % 1017,0 hPa 0,0 l/m 0 min 0 min 0 W/m 10,5 km/h (2 Bft)
01.11.2014 17:26 17,4 C 14,4 C 82 % 1017,1 hPa 0,0 l/m 0 min 0 min 0 W/m 10,5 km/h (2 Bft)
01.11.2014 17:28 17,4 C 14,4 C 82 % 1017,1 hPa 0,0 l/m 0 min 0 min 0 W/m 10,5 km/h (2 Bft)
01.11.2014 17:30 17,3 C 13,9 C 83 % 1017,2 hPa 0,0 l/m 0 min 0 min 0 W/m 8,4 km/h (2 Bft)
01.11.2014 17:32 17,3 C 13,9 C 83 % 1017,1 hPa 0,0 l/m 0 min 0 min 0 W/m 10,5 km/h (2 Bft)
01.11.2014 17:34 17,3 C 13,9 C 83 % 1017,1 hPa 0,0 l/m 0 min 0 min 0 W/m 14,6 km/h (3 Bft)
01.11.2014 17:36 17,2 C 13,9 C 83 % 1017,2 hPa 0,0 l/m 0 min 0 min 0 W/m 12,6 km/h (3 Bft)
01.11.2014 17:38 17,2 C 13,9 C 83 % 1017,2 hPa 0,0 l/m 0 min 0 min 0 W/m 14,6 km/h (3 Bft)
01.11.2014 17:40 17,1 C 13,9 C 83 % 1017,2 hPa 0,0 l/m 0 min 0 min 0 W/m 14,6 km/h (3 Bft)
01.11.2014 17:42 17,1 C 13,9 C 83 % 1017,2 hPa 0,0 l/m 0 min 0 min 0 W/m 10,5 km/h (2 Bft)
01.11.2014 17:44 17,1 C 13,9 C 84 % 1017,2 hPa 0,0 l/m 0 min 0 min 0 W/m 10,5 km/h (2 Bft)
01.11.2014 17:46 17,0 C 13,9 C 84 % 1017,1 hPa 0,0 l/m 0 min 0 min 0 W/m 10,5 km/h (2 Bft)
01.11.2014 17:48 16,9 C 13,9 C 84 % 1017,1 hPa 0,0 l/m 0 min 0 min 0 W/m 12,6 km/h (3 Bft)
01.11.2014 17:50 16,9 C 13,9 C 84 % 1017,1 hPa 0,0 l/m 0 min 0 min 0 W/m 10,5 km/h (2 Bft)
01.11.2014 17:52 16,8 C 13,9 C 84 % 1017,2 hPa 0,0 l/m 0 min 0 min 0 W/m 10,5 km/h (2 Bft)
01.11.2014 17:54 16,8 C 13,9 C 84 % 1017,2 hPa 0,0 l/m 0 min 0 min 0 W/m 10,5 km/h (2 Bft)
01.11.2014 17:56 16,8 C 13,9 C 84 % 1017,2 hPa 0,0 l/m 0 min 0 min 0 W/m 12,6 km/h (3 Bft)
01.11.2014 17:58 16,7 C 13,9 C 84 % 1017,2 hPa 0,0 l/m 0 min 0 min 0 W/m 8,4 km/h (2 Bft)
01.11.2014 18:00 16,7 C 13,9 C 85 % 1017,2 hPa 0,0 l/m 0 min 0 min 0 W/m 8,4 km/h (2 Bft)
01.11.2014 18:02 16,7 C 13,9 C 85 % 1017,2 hPa 0,0 l/m 0 min 0 min 0 W/m 10,5 km/h (2 Bft)
01.11.2014 18:05 16,6 C 13,3 C 85 % 1017,2 hPa 0,0 l/m 0 min 0 min 0 W/m 8,4 km/h (2 Bft)
01.11.2014 18:06 16,6 C 13,3 C 85 % 1017,2 hPa 0,0 l/m 0 min 0 min 0 W/m 8,4 km/h (2 Bft)
01.11.2014 18:08 16,6 C 13,3 C 85 % 1017,2 hPa 0,0 l/m 0 min 0 min 0 W/m 6,3 km/h (2 Bft)
01.11.2014 18:10 16,5 C 13,3 C 85 % 1017,3 hPa 0,0 l/m 0 min 0 min 0 W/m 8,4 km/h (2 Bft)
01.11.2014 18:12 16,4 C 13,3 C 85 % 1017,3 hPa 0,0 l/m 0 min 0 min 0 W/m 6,3 km/h (2 Bft)
01.11.2014 18:14 16,4 C 13,3 C 85 % 1017,4 hPa 0,0 l/m 0 min 0 min 0 W/m 6,3 km/h (2 Bft)
01.11.2014 18:16 16,4 C 12,8 C 85 % 1017,5 hPa 0,0 l/m 0 min 0 min 0 W/m 8,4 km/h (2 Bft)
01.11.2014 18:18 16,4 C 12,8 C 85 % 1017,5 hPa 0,0 l/m 0 min 0 min 0 W/m 8,4 km/h (2 Bft)
01.11.2014 18:20 16,3 C 12,8 C 85 % 1017,5 hPa 0,0 l/m 0 min 0 min 0 W/m 10,5 km/h (2 Bft)
01.11.2014 18:22 16,3 C 12,8 C 85 % 1017,5 hPa 0,0 l/m 0 min 0 min 0 W/m 8,4 km/h (2 Bft)
01.11.2014 18:24 16,2 C 12,8 C 85 % 1017,4 hPa 0,0 l/m 0 min 0 min 0 W/m 10,5 km/h (2 Bft)
01.11.2014 18:26 16,2 C 12,8 C 86 % 1017,4 hPa 0,0 l/m 0 min 0 min 0 W/m 10,5 km/h (2 Bft)
01.11.2014 18:28 16,2 C 12,8 C 86 % 1017,5 hPa 0,0 l/m 0 min 0 min 0 W/m 8,4 km/h (2 Bft)
01.11.2014 18:30 16,1 C 12,8 C 86 % 1017,5 hPa 0,0 l/m 0 min 0 min 0 W/m 8,4 km/h (2 Bft)
01.11.2014 18:32 16,1 C 12,2 C 86 % 1017,5 hPa 0,0 l/m 0 min 0 min 0 W/m 6,3 km/h (2 Bft)
01.11.2014 18:34 16,1 C 12,2 C 86 % 1017,5 hPa 0,0 l/m 0 min 0 min 0 W/m 6,3 km/h (2 Bft)
01.11.2014 18:36 16,0 C 12,2 C 86 % 1017,5 hPa 0,0 l/m 0 min 0 min 0 W/m 6,3 km/h (2 Bft)
01.11.2014 18:38 15,9 C 12,2 C 86 % 1017,4 hPa 0,0 l/m 0 min 0 min 0 W/m 8,4 km/h (2 Bft)
01.11.2014 18:40 15,9 C 12,2 C 86 % 1017,4 hPa 0,0 l/m 0 min 0 min 0 W/m 8,4 km/h (2 Bft)
01.11.2014 18:42 15,9 C 12,2 C 86 % 1017,3 hPa 0,0 l/m 0 min 0 min 0 W/m 8,4 km/h (2 Bft)
01.11.2014 18:44 15,8 C 12,2 C 86 % 1017,3 hPa 0,0 l/m 0 min 0 min 0 W/m 10,5 km/h (2 Bft)
01.11.2014 18:46 15,8 C 12,2 C 86 % 1017,4 hPa 0,0 l/m 0 min 0 min 0 W/m 8,4 km/h (2 Bft)
01.11.2014 18:48 15,7 C 12,2 C 87 % 1017,4 hPa 0,0 l/m 0 min 0 min 0 W/m 8,4 km/h (2 Bft)
01.11.2014 18:50 15,7 C 12,2 C 87 % 1017,4 hPa 0,0 l/m 0 min 0 min 0 W/m 8,4 km/h (2 Bft)
01.11.2014 18:52 15,6 C 12,2 C 87 % 1017,3 hPa 0,0 l/m 0 min 0 min 0 W/m 8,4 km/h (2 Bft)
01.11.2014 18:54 15,6 C 12,2 C 87 % 1017,4 hPa 0,0 l/m 0 min 0 min 0 W/m 8,4 km/h (2 Bft)
01.11.2014 18:56 15,5 C 12,2 C 87 % 1017,3 hPa 0,0 l/m 0 min 0 min 0 W/m 6,3 km/h (2 Bft)
01.11.2014 18:58 15,4 C 12,2 C 87 % 1017,3 hPa 0,0 l/m 0 min 0 min 0 W/m 12,6 km/h (3 Bft)
01.11.2014 19:00 15,4 C 12,2 C 87 % 1017,3 hPa 0,0 l/m 0 min 0 min 0 W/m 10,5 km/h (2 Bft)
01.11.2014 19:02 15,3 C 12,2 C 87 % 1017,3 hPa 0,0 l/m 0 min 0 min 0 W/m 12,6 km/h (3 Bft)
01.11.2014 19:04 15,3 C 12,2 C 88 % 1017,3 hPa 0,0 l/m 0 min 0 min 0 W/m 10,5 km/h (2 Bft)
01.11.2014 19:06 15,2 C 12,2 C 88 % 1017,3 hPa 0,0 l/m 0 min 0 min 0 W/m 8,4 km/h (2 Bft)
01.11.2014 19:08 15,2 C 12,2 C 88 % 1017,3 hPa 0,0 l/m 0 min 0 min 0 W/m 10,5 km/h (2 Bft)
01.11.2014 19:10 15,2 C 12,2 C 88 % 1017,4 hPa 0,0 l/m 0 min 0 min 0 W/m 8,4 km/h (2 Bft)
01.11.2014 19:12 15,1 C 12,2 C 88 % 1017,3 hPa 0,0 l/m 0 min 0 min 0 W/m 8,4 km/h (2 Bft)
01.11.2014 19:14 15,1 C 12,2 C 88 % 1017,4 hPa 0,0 l/m 0 min 0 min 0 W/m 6,3 km/h (2 Bft)
01.11.2014 19:16 15,0 C 12,2 C 88 % 1017,3 hPa 0,0 l/m 0 min 0 min 0 W/m 10,5 km/h (2 Bft)
01.11.2014 19:18 15,0 C 12,2 C 88 % 1017,3 hPa 0,0 l/m 0 min 0 min 0 W/m 10,5 km/h (2 Bft)
01.11.2014 19:20 14,9 C 12,2 C 88 % 1017,3 hPa 0,0 l/m 0 min 0 min 0 W/m 10,5 km/h (2 Bft)
01.11.2014 19:22 14,9 C 12,2 C 88 % 1017,4 hPa 0,0 l/m 0 min 0 min 0 W/m 8,4 km/h (2 Bft)
01.11.2014 19:24 14,9 C 12,2 C 89 % 1017,5 hPa 0,0 l/m 0 min 0 min 0 W/m 8,4 km/h (2 Bft)
01.11.2014 19:26 14,8 C 11,7 C 89 % 1017,4 hPa 0,0 l/m 0 min 0 min 0 W/m 8,4 km/h (2 Bft)
01.11.2014 19:28 14,8 C 11,7 C 89 % 1017,5 hPa 0,0 l/m 0 min 0 min 0 W/m 6,3 km/h (2 Bft)
01.11.2014 19:30 14,8 C 11,7 C 89 % 1017,5 hPa 0,0 l/m 0 min 0 min 0 W/m 4,2 km/h (1 Bft)
01.11.2014 19:32 14,7 C 11,7 C 89 % 1017,5 hPa 0,0 l/m 0 min 0 min 0 W/m 6,3 km/h (2 Bft)
01.11.2014 19:34 14,7 C 11,7 C 89 % 1017,4 hPa 0,0 l/m 0 min 0 min 0 W/m 8,4 km/h (2 Bft)
01.11.2014 19:36 14,7 C 11,7 C 89 % 1017,4 hPa 0,0 l/m 0 min 0 min 0 W/m 8,4 km/h (2 Bft)
01.11.2014 19:38 14,6 C 11,7 C 89 % 1017,4 hPa 0,0 l/m 0 min 0 min 0 W/m 6,3 km/h (2 Bft)
01.11.2014 19:40 14,6 C 11,7 C 89 % 1017,3 hPa 0,0 l/m 0 min 0 min 0 W/m 8,4 km/h (2 Bft)
01.11.2014 19:42 14,6 C 11,7 C 89 % 1017,4 hPa 0,0 l/m 0 min 0 min 0 W/m 8,4 km/h (2 Bft)
01.11.2014 19:44 14,5 C 11,7 C 89 % 1017,4 hPa 0,0 l/m 0 min 0 min 0 W/m 10,5 km/h (2 Bft)
01.11.2014 19:46 14,5 C 11,7 C 89 % 1017,4 hPa 0,0 l/m 0 min 0 min 0 W/m 10,5 km/h (2 Bft)
01.11.2014 19:48 14,4 C 11,7 C 89 % 1017,3 hPa 0,0 l/m 0 min 0 min 0 W/m 8,4 km/h (2 Bft)
01.11.2014 19:50 14,4 C 11,7 C 89 % 1017,3 hPa 0,0 l/m 0 min 0 min 0 W/m 8,4 km/h (2 Bft)
01.11.2014 19:52 14,3 C 11,7 C 89 % 1017,3 hPa 0,0 l/m 0 min 0 min 0 W/m 8,4 km/h (2 Bft)
01.11.2014 19:54 14,3 C 11,7 C 90 % 1017,3 hPa 0,0 l/m 0 min 0 min 0 W/m 8,4 km/h (2 Bft)
01.11.2014 19:56 14,2 C 11,7 C 90 % 1017,3 hPa 0,0 l/m 0 min 0 min 0 W/m 12,6 km/h (3 Bft)
01.11.2014 19:58 14,2 C 11,7 C 90 % 1017,3 hPa 0,0 l/m 0 min 0 min 0 W/m 8,4 km/h (2 Bft)
01.11.2014 20:00 14,2 C 11,7 C 90 % 1017,3 hPa 0,0 l/m 0 min 0 min 0 W/m 8,4 km/h (2 Bft)
01.11.2014 20:02 14,2 C 11,7 C 90 % 1017,3 hPa 0,0 l/m 0 min 0 min 0 W/m 10,5 km/h (2 Bft)
01.11.2014 20:04 14,2 C 11,7 C 90 % 1017,3 hPa 0,0 l/m 0 min 0 min 0 W/m 10,5 km/h (2 Bft)
01.11.2014 20:06 14,2 C 11,7 C 90 % 1017,3 hPa 0,0 l/m 0 min 0 min 0 W/m 10,5 km/h (2 Bft)
01.11.2014 20:08 14,2 C 11,7 C 90 % 1017,3 hPa 0,0 l/m 0 min 0 min 0 W/m 8,4 km/h (2 Bft)
01.11.2014 20:10 14,2 C 11,7 C 90 % 1017,3 hPa 0,0 l/m 0 min 0 min 0 W/m 8,4 km/h (2 Bft)
01.11.2014 20:12 14,1 C 11,7 C 90 % 1017,4 hPa 0,0 l/m 0 min 0 min 0 W/m 8,4 km/h (2 Bft)
01.11.2014 20:14 14,0 C 11,7 C 90 % 1017,4 hPa 0,0 l/m 0 min 0 min 0 W/m 8,4 km/h (2 Bft)
01.11.2014 20:16 14,0 C 11,7 C 90 % 1017,4 hPa 0,0 l/m 0 min 0 min 0 W/m 10,5 km/h (2 Bft)
01.11.2014 20:18 13,9 C 11,7 C 90 % 1017,5 hPa 0,0 l/m 0 min 0 min 0 W/m 6,3 km/h (2 Bft)
01.11.2014 20:20 13,9 C 11,1 C 90 % 1017,5 hPa 0,0 l/m 0 min 0 min 0 W/m 6,3 km/h (2 Bft)
01.11.2014 20:22 13,9 C 11,1 C 90 % 1017,5 hPa 0,0 l/m 0 min 0 min 0 W/m 6,3 km/h (2 Bft)
01.11.2014 20:24 13,9 C 11,1 C 90 % 1017,4 hPa 0,0 l/m 0 min 0 min 0 W/m 8,4 km/h (2 Bft)
01.11.2014 20:26 13,9 C 11,1 C 90 % 1017,5 hPa 0,0 l/m 0 min 0 min 0 W/m 8,4 km/h (2 Bft)
01.11.2014 20:28 13,8 C 11,1 C 90 % 1017,4 hPa 0,0 l/m 0 min 0 min 0 W/m 10,5 km/h (2 Bft)
01.11.2014 20:30 13,8 C 11,1 C 90 % 1017,5 hPa 0,0 l/m 0 min 0 min 0 W/m 10,5 km/h (2 Bft)
01.11.2014 20:32 13,8 C 11,1 C 90 % 1017,5 hPa 0,0 l/m 0 min 0 min 0 W/m 8,4 km/h (2 Bft)
01.11.2014 20:34 13,7 C 10,6 C 90 % 1017,5 hPa 0,0 l/m 0 min 0 min 0 W/m 8,4 km/h (2 Bft)
01.11.2014 20:36 13,7 C 10,6 C 90 % 1017,5 hPa 0,0 l/m 0 min 0 min 0 W/m 8,4 km/h (2 Bft)
01.11.2014 20:38 13,7 C 10,6 C 90 % 1017,5 hPa 0,0 l/m 0 min 0 min 0 W/m 8,4 km/h (2 Bft)
01.11.2014 20:40 13,6 C 10,6 C 90 % 1017,5 hPa 0,0 l/m 0 min 0 min 0 W/m 6,3 km/h (2 Bft)
01.11.2014 20:42 13,6 C 10,6 C 90 % 1017,5 hPa 0,0 l/m 0 min 0 min 0 W/m 10,5 km/h (2 Bft)
01.11.2014 20:44 13,6 C 10,6 C 90 % 1017,5 hPa 0,0 l/m 0 min 0 min 0 W/m 8,4 km/h (2 Bft)
01.11.2014 20:46 13,5 C 10,6 C 90 % 1017,5 hPa 0,0 l/m 0 min 0 min 0 W/m 8,4 km/h (2 Bft)
01.11.2014 20:48 13,5 C 10,6 C 90 % 1017,5 hPa 0,0 l/m 0 min 0 min 0 W/m 6,3 km/h (2 Bft)
01.11.2014 20:50 13,4 C 10,6 C 90 % 1017,6 hPa 0,0 l/m 0 min 0 min 0 W/m 6,3 km/h (2 Bft)
01.11.2014 20:52 13,4 C 10,6 C 90 % 1017,6 hPa 0,0 l/m 0 min 0 min 0 W/m 6,3 km/h (2 Bft)
01.11.2014 20:54 13,4 C 10,6 C 90 % 1017,6 hPa 0,0 l/m 0 min 0 min 0 W/m 6,3 km/h (2 Bft)
01.11.2014 20:56 13,4 C 10,6 C 90 % 1017,5 hPa 0,0 l/m 0 min 0 min 0 W/m 6,3 km/h (2 Bft)
01.11.2014 20:58 13,3 C 10,6 C 90 % 1017,6 hPa 0,0 l/m 0 min 0 min 0 W/m 6,3 km/h (2 Bft)
01.11.2014 21:00 13,3 C 10,6 C 90 % 1017,5 hPa 0,0 l/m 0 min 0 min 0 W/m 6,3 km/h (2 Bft)
01.11.2014 21:02 13,3 C 10,6 C 90 % 1017,6 hPa 0,0 l/m 0 min 0 min 0 W/m 6,3 km/h (2 Bft)
01.11.2014 21:04 13,3 C 10,6 C 90 % 1017,6 hPa 0,0 l/m 0 min 0 min 0 W/m 8,4 km/h (2 Bft)
01.11.2014 21:06 13,2 C 10,6 C 90 % 1017,6 hPa 0,0 l/m 0 min 0 min 0 W/m 8,4 km/h (2 Bft)
01.11.2014 21:08 13,2 C 10,6 C 91 % 1017,6 hPa 0,0 l/m 0 min 0 min 0 W/m 6,3 km/h (2 Bft)
01.11.2014 21:10 13,2 C 10,6 C 91 % 1017,6 hPa 0,0 l/m 0 min 0 min 0 W/m 8,4 km/h (2 Bft)
01.11.2014 21:12 13,2 C 10,6 C 91 % 1017,6 hPa 0,0 l/m 0 min 0 min 0 W/m 6,3 km/h (2 Bft)
01.11.2014 21:14 13,1 C 10,6 C 91 % 1017,5 hPa 0,0 l/m 0 min 0 min 0 W/m 6,3 km/h (2 Bft)
01.11.2014 21:16 13,1 C 10,6 C 91 % 1017,5 hPa 0,0 l/m 0 min 0 min 0 W/m 6,3 km/h (2 Bft)
01.11.2014 21:18 13,1 C 10,6 C 91 % 1017,6 hPa 0,0 l/m 0 min 0 min 0 W/m 6,3 km/h (2 Bft)
01.11.2014 21:20 13,1 C 10,6 C 91 % 1017,5 hPa 0,0 l/m 0 min 0 min 0 W/m 8,4 km/h (2 Bft)
01.11.2014 21:22 13,1 C 10,6 C 91 % 1017,6 hPa 0,0 l/m 0 min 0 min 0 W/m 8,4 km/h (2 Bft)
01.11.2014 21:24 13,0 C 10,6 C 91 % 1017,6 hPa 0,0 l/m 0 min 0 min 0 W/m 8,4 km/h (2 Bft)
01.11.2014 21:26 13,0 C 10,6 C 91 % 1017,6 hPa 0,0 l/m 0 min 0 min 0 W/m 8,4 km/h (2 Bft)
01.11.2014 21:28 12,9 C 10,6 C 91 % 1017,6 hPa 0,0 l/m 0 min 0 min 0 W/m 6,3 km/h (2 Bft)
01.11.2014 21:30 12,9 C 10,6 C 91 % 1017,6 hPa 0,0 l/m 0 min 0 min 0 W/m 8,4 km/h (2 Bft)
01.11.2014 21:32 12,9 C 10,6 C 91 % 1017,6 hPa 0,0 l/m 0 min 0 min 0 W/m 8,4 km/h (2 Bft)
01.11.2014 21:34 12,9 C 10,6 C 91 % 1017,6 hPa 0,0 l/m 0 min 0 min 0 W/m 8,4 km/h (2 Bft)
01.11.2014 21:36 12,9 C 10,6 C 91 % 1017,6 hPa 0,0 l/m 0 min 0 min 0 W/m 6,3 km/h (2 Bft)
01.11.2014 21:38 12,8 C 10,6 C 91 % 1017,6 hPa 0,0 l/m 0 min 0 min 0 W/m 8,4 km/h (2 Bft)
01.11.2014 21:40 12,8 C 10,6 C 91 % 1017,6 hPa 0,0 l/m 0 min 0 min 0 W/m 6,3 km/h (2 Bft)
01.11.2014 21:42 12,8 C 10,6 C 91 % 1017,6 hPa 0,0 l/m 0 min 0 min 0 W/m 8,4 km/h (2 Bft)
01.11.2014 21:44 12,8 C 10,0 C 91 % 1017,6 hPa 0,0 l/m 0 min 0 min 0 W/m 8,4 km/h (2 Bft)
01.11.2014 21:46 12,8 C 10,0 C 91 % 1017,6 hPa 0,0 l/m 0 min 0 min 0 W/m 8,4 km/h (2 Bft)
01.11.2014 21:48 12,7 C 10,0 C 91 % 1017,6 hPa 0,0 l/m 0 min 0 min 0 W/m 8,4 km/h (2 Bft)
01.11.2014 21:50 12,7 C 10,0 C 91 % 1017,6 hPa 0,0 l/m 0 min 0 min 0 W/m 8,4 km/h (2 Bft)
01.11.2014 21:52 12,7 C 10,0 C 91 % 1017,6 hPa 0,0 l/m 0 min 0 min 0 W/m 8,4 km/h (2 Bft)
01.11.2014 21:54 12,7 C 10,0 C 91 % 1017,5 hPa 0,0 l/m 0 min 0 min 0 W/m 8,4 km/h (2 Bft)
01.11.2014 21:56 12,7 C 10,0 C 92 % 1017,6 hPa 0,0 l/m 0 min 0 min 0 W/m 8,4 km/h (2 Bft)
01.11.2014 21:58 12,6 C 10,0 C 92 % 1017,6 hPa 0,0 l/m 0 min 0 min 0 W/m 8,4 km/h (2 Bft)
01.11.2014 22:00 12,6 C 10,6 C 92 % 1017,6 hPa 0,0 l/m 0 min 0 min 0 W/m 8,4 km/h (2 Bft)
01.11.2014 22:02 12,6 C 10,6 C 92 % 1017,6 hPa 0,0 l/m 0 min 0 min 0 W/m 8,4 km/h (2 Bft)
01.11.2014 22:04 12,6 C 10,0 C 92 % 1017,6 hPa 0,0 l/m 0 min 0 min 0 W/m 8,4 km/h (2 Bft)
01.11.2014 22:06 12,6 C 10,6 C 92 % 1017,6 hPa 0,0 l/m 0 min 0 min 0 W/m 6,3 km/h (2 Bft)
01.11.2014 22:08 12,6 C 10,0 C 92 % 1017,6 hPa 0,0 l/m 0 min 0 min 0 W/m 8,4 km/h (2 Bft)
01.11.2014 22:10 12,6 C 10,0 C 92 % 1017,6 hPa 0,0 l/m 0 min 0 min 0 W/m 6,3 km/h (2 Bft)
01.11.2014 22:12 12,6 C 10,0 C 92 % 1017,6 hPa 0,0 l/m 0 min 0 min 0 W/m 8,4 km/h (2 Bft)
01.11.2014 22:14 12,5 C 10,0 C 92 % 1017,6 hPa 0,0 l/m 0 min 0 min 0 W/m 6,3 km/h (2 Bft)
01.11.2014 22:16 12,5 C 10,0 C 92 % 1017,6 hPa 0,0 l/m 0 min 0 min 0 W/m 8,4 km/h (2 Bft)
01.11.2014 22:18 12,5 C 10,0 C 92 % 1017,6 hPa 0,0 l/m 0 min 0 min 0 W/m 6,3 km/h (2 Bft)
01.11.2014 22:20 12,4 C 10,0 C 92 % 1017,5 hPa 0,0 l/m 0 min 0 min 0 W/m 8,4 km/h (2 Bft)
01.11.2014 22:22 12,4 C 10,0 C 92 % 1017,6 hPa 0,0 l/m 0 min 0 min 0 W/m 8,4 km/h (2 Bft)
01.11.2014 22:24 12,4 C 10,0 C 92 % 1017,6 hPa 0,0 l/m 0 min 0 min 0 W/m 6,3 km/h (2 Bft)
01.11.2014 22:26 12,4 C 10,0 C 93 % 1017,6 hPa 0,0 l/m 0 min 0 min 0 W/m 6,3 km/h (2 Bft)
01.11.2014 22:28 12,4 C 10,0 C 93 % 1017,6 hPa 0,0 l/m 0 min 0 min 0 W/m 6,3 km/h (2 Bft)
01.11.2014 22:30 12,4 C 10,0 C 93 % 1017,5 hPa 0,0 l/m 0 min 0 min 0 W/m 6,3 km/h (2 Bft)
01.11.2014 22:32 12,4 C 10,0 C 93 % 1017,5 hPa 0,0 l/m 0 min 0 min 0 W/m 8,4 km/h (2 Bft)
01.11.2014 22:34 12,3 C 10,0 C 93 % 1017,5 hPa 0,0 l/m 0 min 0 min 0 W/m 10,5 km/h (2 Bft)
01.11.2014 22:36 12,3 C 10,0 C 93 % 1017,5 hPa 0,0 l/m 0 min 0 min 0 W/m 8,4 km/h (2 Bft)
01.11.2014 22:38 12,3 C 10,0 C 93 % 1017,4 hPa 0,0 l/m 0 min 0 min 0 W/m 10,5 km/h (2 Bft)
01.11.2014 22:40 12,3 C 10,0 C 93 % 1017,4 hPa 0,0 l/m 0 min 0 min 0 W/m 8,4 km/h (2 Bft)
01.11.2014 22:42 12,3 C 10,0 C 93 % 1017,4 hPa 0,0 l/m 0 min 0 min 0 W/m 10,5 km/h (2 Bft)
01.11.2014 22:44 12,3 C 10,0 C 93 % 1017,3 hPa 0,0 l/m 0 min 0 min 0 W/m 10,5 km/h (2 Bft)
01.11.2014 22:46 12,3 C 10,0 C 93 % 1017,3 hPa 0,0 l/m 0 min 0 min 0 W/m 10,5 km/h (2 Bft)
01.11.2014 22:48 12,2 C 10,0 C 93 % 1017,3 hPa 0,0 l/m 0 min 0 min 0 W/m 8,4 km/h (2 Bft)
01.11.2014 22:50 12,2 C 10,0 C 93 % 1017,3 hPa 0,0 l/m 0 min 0 min 0 W/m 8,4 km/h (2 Bft)
01.11.2014 22:52 12,2 C 10,0 C 93 % 1017,3 hPa 0,0 l/m 0 min 0 min 0 W/m 8,4 km/h (2 Bft)
01.11.2014 22:54 12,2 C 10,0 C 93 % 1017,3 hPa 0,0 l/m 0 min 0 min 0 W/m 8,4 km/h (2 Bft)
01.11.2014 22:56 12,2 C 10,0 C 93 % 1017,3 hPa 0,0 l/m 0 min 0 min 0 W/m 6,3 km/h (2 Bft)
01.11.2014 22:58 12,2 C 10,0 C 93 % 1017,3 hPa 0,0 l/m 0 min 0 min 0 W/m 8,4 km/h (2 Bft)
01.11.2014 23:00 12,2 C 10,0 C 93 % 1017,3 hPa 0,0 l/m 0 min 0 min 0 W/m 8,4 km/h (2 Bft)
01.11.2014 23:02 12,1 C 10,0 C 93 % 1017,2 hPa 0,0 l/m 0 min 0 min 0 W/m 10,5 km/h (2 Bft)
01.11.2014 23:04 12,1 C 10,6 C 94 % 1017,2 hPa 0,0 l/m 0 min 0 min 0 W/m 8,4 km/h (2 Bft)
01.11.2014 23:06 12,1 C 10,6 C 94 % 1017,3 hPa 0,0 l/m 0 min 0 min 0 W/m 8,4 km/h (2 Bft)
01.11.2014 23:08 12,1 C 10,6 C 94 % 1017,3 hPa 0,0 l/m 0 min 0 min 0 W/m 8,4 km/h (2 Bft)
01.11.2014 23:10 12,1 C 10,6 C 94 % 1017,2 hPa 0,0 l/m 0 min 0 min 0 W/m 6,3 km/h (2 Bft)
01.11.2014 23:12 12,1 C 10,6 C 94 % 1017,2 hPa 0,0 l/m 0 min 0 min 0 W/m 8,4 km/h (2 Bft)
01.11.2014 23:14 12,1 C 10,6 C 94 % 1017,1 hPa 0,0 l/m 0 min 0 min 0 W/m 6,3 km/h (2 Bft)
01.11.2014 23:16 12,1 C 10,6 C 94 % 1017,2 hPa 0,0 l/m 0 min 0 min 0 W/m 8,4 km/h (2 Bft)
01.11.2014 23:18 12,1 C 10,6 C 94 % 1017,1 hPa 0,0 l/m 0 min 0 min 0 W/m 8,4 km/h (2 Bft)
01.11.2014 23:20 12,1 C 10,6 C 94 % 1017,1 hPa 0,0 l/m 0 min 0 min 0 W/m 10,5 km/h (2 Bft)
01.11.2014 23:22 12,1 C 10,6 C 94 % 1017,1 hPa 0,0 l/m 0 min 0 min 0 W/m 8,4 km/h (2 Bft)
01.11.2014 23:24 12,1 C 10,6 C 94 % 1017,1 hPa 0,0 l/m 0 min 0 min 0 W/m 8,4 km/h (2 Bft)
01.11.2014 23:26 12,1 C 10,6 C 94 % 1017,1 hPa 0,0 l/m 0 min 0 min 0 W/m 6,3 km/h (2 Bft)
01.11.2014 23:28 12,1 C 10,6 C 94 % 1017,1 hPa 0,0 l/m 0 min 0 min 0 W/m 6,3 km/h (2 Bft)
01.11.2014 23:30 12,1 C 10,6 C 94 % 1017,1 hPa 0,0 l/m 0 min 0 min 0 W/m 12,6 km/h (3 Bft)
01.11.2014 23:32 12,1 C 10,6 C 94 % 1017,0 hPa 0,0 l/m 0 min 0 min 0 W/m 6,3 km/h (2 Bft)
01.11.2014 23:34 12,1 C 10,6 C 94 % 1017,0 hPa 0,0 l/m 0 min 0 min 0 W/m 10,5 km/h (2 Bft)
01.11.2014 23:36 12,1 C 10,6 C 94 % 1017,0 hPa 0,0 l/m 0 min 0 min 0 W/m 8,4 km/h (2 Bft)
01.11.2014 23:38 12,0 C 10,6 C 94 % 1017,0 hPa 0,0 l/m 0 min 0 min 0 W/m 8,4 km/h (2 Bft)
01.11.2014 23:40 12,1 C 10,6 C 94 % 1017,0 hPa 0,0 l/m 0 min 0 min 0 W/m 10,5 km/h (2 Bft)
01.11.2014 23:42 12,1 C 10,6 C 94 % 1017,0 hPa 0,0 l/m 0 min 0 min 0 W/m 8,4 km/h (2 Bft)
01.11.2014 23:44 12,0 C 10,6 C 94 % 1017,0 hPa 0,0 l/m 0 min 0 min 0 W/m 6,3 km/h (2 Bft)
01.11.2014 23:46 12,0 C 10,6 C 94 % 1017,0 hPa 0,0 l/m 0 min 0 min 0 W/m 8,4 km/h (2 Bft)
01.11.2014 23:48 12,0 C 10,6 C 94 % 1016,9 hPa 0,0 l/m 0 min 0 min 0 W/m 8,4 km/h (2 Bft)
01.11.2014 23:50 12,0 C 10,6 C 94 % 1016,9 hPa 0,0 l/m 0 min 0 min 0 W/m 8,4 km/h (2 Bft)
01.11.2014 23:52 12,0 C 10,6 C 94 % 1016,9 hPa 0,0 l/m 0 min 0 min 0 W/m 8,4 km/h (2 Bft)
01.11.2014 23:54 12,0 C 10,6 C 94 % 1016,9 hPa 0,0 l/m 0 min 0 min 0 W/m 8,4 km/h (2 Bft)
01.11.2014 23:56 12,0 C 10,6 C 94 % 1016,9 hPa 0,0 l/m 0 min 0 min 0 W/m 8,4 km/h (2 Bft)
01.11.2014 23:58 12,0 C 10,6 C 94 % 1016,9 hPa 0,0 l/m 0 min 0 min 0 W/m 10,5 km/h (2 Bft)
_ Min-Zeit 06:50 03:38 14:38 23:48 - - - - 19:30
Minimum _ 10,6 C 9,4 C 74 % 1016,9 hPa - - - - 4,2 km/h (1 Bft)
_ Max-Zeit 14:38 14:30 07:04 00:02 05:20 07:52 00:00 13:06 11:34
Maximum _ 20,3 C 17,8 C 98 % 1021,4 hPa 0,2 l/m 2 min 0 min 477 W/m 29,3 km/h
S (5 Bft)
Durchschnitt _ 14,1 C 12,2 C 90 % 1018,7 hPa #0,2 l/m #5:35 h #0 min. 172 W/m 13,0 km/h (3 Bft)
© 2014 W. Hausmann